<?xml version='1.0' encoding='UTF-8'?>
<gpx version="1.1" creator="https://www.komoot.de" xmlns="http://www.topografix.com/GPX/1/1" xmlns:xsi="http://www.w3.org/2001/XMLSchema-instance" xsi:schemaLocation="http://www.topografix.com/GPX/1/1 http://www.topografix.com/GPX/1/1/gpx.xsd">
  <metadata>
    <name>ERC Race+ Runde</name>
    <author>
      <link href="https://www.komoot.de">
        <text>komoot</text>
        <type>text/html</type>
      </link>
    </author>
  </metadata>
  <trk>
    <name>ERC Race+ Runde</name>
    <trkseg>
      <trkpt lat="51.080635" lon="6.332679">
        <ele>95.876383</ele>
        <time>2019-08-14T12:42:32.386Z</time>
      </trkpt>
      <trkpt lat="51.080633" lon="6.332661">
        <ele>95.876383</ele>
        <time>2019-08-14T12:42:33.256Z</time>
      </trkpt>
      <trkpt lat="51.081092" lon="6.332538">
        <ele>95.876383</ele>
        <time>2019-08-14T12:42:38.425Z</time>
      </trkpt>
      <trkpt lat="51.081118" lon="6.332531">
        <ele>95.876383</ele>
        <time>2019-08-14T12:42:38.710Z</time>
      </trkpt>
      <trkpt lat="51.081152" lon="6.332520">
        <ele>95.876383</ele>
        <time>2019-08-14T12:42:39.085Z</time>
      </trkpt>
      <trkpt lat="51.081682" lon="6.332377">
        <ele>95.713551</ele>
        <time>2019-08-14T12:42:44.847Z</time>
      </trkpt>
      <trkpt lat="51.081962" lon="6.332301">
        <ele>95.451126</ele>
        <time>2019-08-14T12:42:47.810Z</time>
      </trkpt>
      <trkpt lat="51.082095" lon="6.332289">
        <ele>95.328051</ele>
        <time>2019-08-14T12:42:49.287Z</time>
      </trkpt>
      <trkpt lat="51.082190" lon="6.332360">
        <ele>95.231089</ele>
        <time>2019-08-14T12:42:50.380Z</time>
      </trkpt>
      <trkpt lat="51.082223" lon="6.332415">
        <ele>95.186946</ele>
        <time>2019-08-14T12:42:50.857Z</time>
      </trkpt>
      <trkpt lat="51.082297" lon="6.332537">
        <ele>95.088518</ele>
        <time>2019-08-14T12:42:51.905Z</time>
      </trkpt>
      <trkpt lat="51.082487" lon="6.332864">
        <ele>94.829995</ele>
        <time>2019-08-14T12:42:54.830Z</time>
      </trkpt>
      <trkpt lat="51.082883" lon="6.333534">
        <ele>94.296077</ele>
        <time>2019-08-14T12:43:00.922Z</time>
      </trkpt>
      <trkpt lat="51.082857" lon="6.333573">
        <ele>94.263072</ele>
        <time>2019-08-14T12:43:01.327Z</time>
      </trkpt>
      <trkpt lat="51.082944" lon="6.333718">
        <ele>94.174792</ele>
        <time>2019-08-14T12:43:02.213Z</time>
      </trkpt>
      <trkpt lat="51.083533" lon="6.334795">
        <ele>93.688820</ele>
        <time>2019-08-14T12:43:09.073Z</time>
      </trkpt>
      <trkpt lat="51.083775" lon="6.335374">
        <ele>93.452141</ele>
        <time>2019-08-14T12:43:12.692Z</time>
      </trkpt>
      <trkpt lat="51.084281" lon="6.336870">
        <ele>93.021843</ele>
        <time>2019-08-14T12:43:21.842Z</time>
      </trkpt>
      <trkpt lat="51.084284" lon="6.336991">
        <ele>92.997276</ele>
        <time>2019-08-14T12:43:22.584Z</time>
      </trkpt>
      <trkpt lat="51.084258" lon="6.337048">
        <ele>92.982985</ele>
        <time>2019-08-14T12:43:23.553Z</time>
      </trkpt>
      <trkpt lat="51.084318" lon="6.337162">
        <ele>92.952813</ele>
        <time>2019-08-14T12:43:24.296Z</time>
      </trkpt>
      <trkpt lat="51.084380" lon="6.337284">
        <ele>92.920978</ele>
        <time>2019-08-14T12:43:25.059Z</time>
      </trkpt>
      <trkpt lat="51.084464" lon="6.337384">
        <ele>92.887103</ele>
        <time>2019-08-14T12:43:25.959Z</time>
      </trkpt>
      <trkpt lat="51.084778" lon="6.338176">
        <ele>92.697104</ele>
        <time>2019-08-14T12:43:30.696Z</time>
      </trkpt>
      <trkpt lat="51.084807" lon="6.338176">
        <ele>92.687739</ele>
        <time>2019-08-14T12:43:30.907Z</time>
      </trkpt>
      <trkpt lat="51.084918" lon="6.338527">
        <ele>92.562219</ele>
        <time>2019-08-14T12:43:33.720Z</time>
      </trkpt>
      <trkpt lat="51.085250" lon="6.339424">
        <ele>92.162433</ele>
        <time>2019-08-14T12:43:40.908Z</time>
      </trkpt>
      <trkpt lat="51.085656" lon="6.340560">
        <ele>91.660559</ele>
        <time>2019-08-14T12:43:49.722Z</time>
      </trkpt>
      <trkpt lat="51.085754" lon="6.340937">
        <ele>91.517713</ele>
        <time>2019-08-14T12:43:52.540Z</time>
      </trkpt>
      <trkpt lat="51.085798" lon="6.341185">
        <ele>91.443217</ele>
        <time>2019-08-14T12:43:54.327Z</time>
      </trkpt>
      <trkpt lat="51.085852" lon="6.341498">
        <ele>91.349386</ele>
        <time>2019-08-14T12:43:56.612Z</time>
      </trkpt>
      <trkpt lat="51.085924" lon="6.341773">
        <ele>91.263262</ele>
        <time>2019-08-14T12:43:58.712Z</time>
      </trkpt>
      <trkpt lat="51.086526" lon="6.343370">
        <ele>90.728680</ele>
        <time>2019-08-14T12:44:11.888Z</time>
      </trkpt>
      <trkpt lat="51.086693" lon="6.344213">
        <ele>90.608172</ele>
        <time>2019-08-14T12:44:18.371Z</time>
      </trkpt>
      <trkpt lat="51.086723" lon="6.344478">
        <ele>90.571462</ele>
        <time>2019-08-14T12:44:20.337Z</time>
      </trkpt>
      <trkpt lat="51.086792" lon="6.345097">
        <ele>90.485755</ele>
        <time>2019-08-14T12:44:25.122Z</time>
      </trkpt>
      <trkpt lat="51.086996" lon="6.346652">
        <ele>90.150664</ele>
        <time>2019-08-14T12:44:36.828Z</time>
      </trkpt>
      <trkpt lat="51.087080" lon="6.347066">
        <ele>89.994421</ele>
        <time>2019-08-14T12:44:39.995Z</time>
      </trkpt>
      <trkpt lat="51.087435" lon="6.348600">
        <ele>89.407319</ele>
        <time>2019-08-14T12:44:51.195Z</time>
      </trkpt>
      <trkpt lat="51.087923" lon="6.350714">
        <ele>88.376674</ele>
        <time>2019-08-14T12:45:06.078Z</time>
      </trkpt>
      <trkpt lat="51.088040" lon="6.351205">
        <ele>88.129568</ele>
        <time>2019-08-14T12:45:09.667Z</time>
      </trkpt>
      <trkpt lat="51.088232" lon="6.352203">
        <ele>87.950580</ele>
        <time>2019-08-14T12:45:17.084Z</time>
      </trkpt>
      <trkpt lat="51.088751" lon="6.357484">
        <ele>88.219745</ele>
        <time>2019-08-14T12:45:59.081Z</time>
      </trkpt>
      <trkpt lat="51.089324" lon="6.361827">
        <ele>88.506225</ele>
        <time>2019-08-14T12:46:34.550Z</time>
      </trkpt>
      <trkpt lat="51.089416" lon="6.363837">
        <ele>87.957676</ele>
        <time>2019-08-14T12:46:48.696Z</time>
      </trkpt>
      <trkpt lat="51.089423" lon="6.364006">
        <ele>87.871590</ele>
        <time>2019-08-14T12:46:49.818Z</time>
      </trkpt>
      <trkpt lat="51.089761" lon="6.364031">
        <ele>87.597779</ele>
        <time>2019-08-14T12:46:52.338Z</time>
      </trkpt>
      <trkpt lat="51.090667" lon="6.364224">
        <ele>86.805873</ele>
        <time>2019-08-14T12:46:58.921Z</time>
      </trkpt>
      <trkpt lat="51.091810" lon="6.364720">
        <ele>85.557441</ele>
        <time>2019-08-14T12:47:07.487Z</time>
      </trkpt>
      <trkpt lat="51.092099" lon="6.364889">
        <ele>85.233000</ele>
        <time>2019-08-14T12:47:09.759Z</time>
      </trkpt>
      <trkpt lat="51.092114" lon="6.364899">
        <ele>85.215864</ele>
        <time>2019-08-14T12:47:09.905Z</time>
      </trkpt>
      <trkpt lat="51.093063" lon="6.365655">
        <ele>84.299426</ele>
        <time>2019-08-14T12:47:17.844Z</time>
      </trkpt>
      <trkpt lat="51.094554" lon="6.367225">
        <ele>82.994708</ele>
        <time>2019-08-14T12:47:31.506Z</time>
      </trkpt>
      <trkpt lat="51.095084" lon="6.367947">
        <ele>82.554973</ele>
        <time>2019-08-14T12:47:36.914Z</time>
      </trkpt>
      <trkpt lat="51.095452" lon="6.368717">
        <ele>82.493489</ele>
        <time>2019-08-14T12:47:41.912Z</time>
      </trkpt>
      <trkpt lat="51.095548" lon="6.368917">
        <ele>82.499684</ele>
        <time>2019-08-14T12:47:43.293Z</time>
      </trkpt>
      <trkpt lat="51.095662" lon="6.369132">
        <ele>82.506608</ele>
        <time>2019-08-14T12:47:44.811Z</time>
      </trkpt>
      <trkpt lat="51.095718" lon="6.369138">
        <ele>82.508808</ele>
        <time>2019-08-14T12:47:45.312Z</time>
      </trkpt>
      <trkpt lat="51.095862" lon="6.368984">
        <ele>82.515605</ele>
        <time>2019-08-14T12:47:46.897Z</time>
      </trkpt>
      <trkpt lat="51.096110" lon="6.368729">
        <ele>82.527173</ele>
        <time>2019-08-14T12:47:49.626Z</time>
      </trkpt>
      <trkpt lat="51.097414" lon="6.367340">
        <ele>83.021321</ele>
        <time>2019-08-14T12:48:05.474Z</time>
      </trkpt>
      <trkpt lat="51.097852" lon="6.366992">
        <ele>83.231282</ele>
        <time>2019-08-14T12:48:10.432Z</time>
      </trkpt>
      <trkpt lat="51.098235" lon="6.366689">
        <ele>83.298730</ele>
        <time>2019-08-14T12:48:14.597Z</time>
      </trkpt>
      <trkpt lat="51.098436" lon="6.366465">
        <ele>83.279501</ele>
        <time>2019-08-14T12:48:16.949Z</time>
      </trkpt>
      <trkpt lat="51.098552" lon="6.366329">
        <ele>83.268211</ele>
        <time>2019-08-14T12:48:18.280Z</time>
      </trkpt>
      <trkpt lat="51.101494" lon="6.362915">
        <ele>82.209028</ele>
        <time>2019-08-14T12:48:48.565Z</time>
      </trkpt>
      <trkpt lat="51.101624" lon="6.362788">
        <ele>82.101239</ele>
        <time>2019-08-14T12:48:49.723Z</time>
      </trkpt>
      <trkpt lat="51.101656" lon="6.362759">
        <ele>82.075217</ele>
        <time>2019-08-14T12:48:49.999Z</time>
      </trkpt>
      <trkpt lat="51.102387" lon="6.362083">
        <ele>81.477783</ele>
        <time>2019-08-14T12:48:56.242Z</time>
      </trkpt>
      <trkpt lat="51.102463" lon="6.362010">
        <ele>81.415056</ele>
        <time>2019-08-14T12:48:56.884Z</time>
      </trkpt>
      <trkpt lat="51.102885" lon="6.361613">
        <ele>80.980862</ele>
        <time>2019-08-14T12:49:00.437Z</time>
      </trkpt>
      <trkpt lat="51.103254" lon="6.361183">
        <ele>80.573358</ele>
        <time>2019-08-14T12:49:03.821Z</time>
      </trkpt>
      <trkpt lat="51.103377" lon="6.361009">
        <ele>80.426733</ele>
        <time>2019-08-14T12:49:05.062Z</time>
      </trkpt>
      <trkpt lat="51.103785" lon="6.360467">
        <ele>79.953212</ele>
        <time>2019-08-14T12:49:09.057Z</time>
      </trkpt>
      <trkpt lat="51.104194" lon="6.359812">
        <ele>79.514492</ele>
        <time>2019-08-14T12:49:13.509Z</time>
      </trkpt>
      <trkpt lat="51.104766" lon="6.358904">
        <ele>78.948674</ele>
        <time>2019-08-14T12:49:19.790Z</time>
      </trkpt>
      <trkpt lat="51.105444" lon="6.358512">
        <ele>78.406270</ele>
        <time>2019-08-14T12:49:25.321Z</time>
      </trkpt>
      <trkpt lat="51.107613" lon="6.357134">
        <ele>76.528421</ele>
        <time>2019-08-14T12:49:42.427Z</time>
      </trkpt>
      <trkpt lat="51.108650" lon="6.356528">
        <ele>76.073080</ele>
        <time>2019-08-14T12:49:51.886Z</time>
      </trkpt>
      <trkpt lat="51.110214" lon="6.355667">
        <ele>76.822849</ele>
        <time>2019-08-14T12:50:08.878Z</time>
      </trkpt>
      <trkpt lat="51.110302" lon="6.355629">
        <ele>76.864974</ele>
        <time>2019-08-14T12:50:09.822Z</time>
      </trkpt>
      <trkpt lat="51.110876" lon="6.355323">
        <ele>77.092436</ele>
        <time>2019-08-14T12:50:16.053Z</time>
      </trkpt>
      <trkpt lat="51.111987" lon="6.354525">
        <ele>77.536769</ele>
        <time>2019-08-14T12:50:27.677Z</time>
      </trkpt>
      <trkpt lat="51.113124" lon="6.353650">
        <ele>77.620570</ele>
        <time>2019-08-14T12:50:39.141Z</time>
      </trkpt>
      <trkpt lat="51.113146" lon="6.353633">
        <ele>77.621929</ele>
        <time>2019-08-14T12:50:39.309Z</time>
      </trkpt>
      <trkpt lat="51.113760" lon="6.353107">
        <ele>77.647590</ele>
        <time>2019-08-14T12:50:45.775Z</time>
      </trkpt>
      <trkpt lat="51.114331" lon="6.352582">
        <ele>77.623346</ele>
        <time>2019-08-14T12:50:51.409Z</time>
      </trkpt>
      <trkpt lat="51.114547" lon="6.352397">
        <ele>77.614328</ele>
        <time>2019-08-14T12:50:53.380Z</time>
      </trkpt>
      <trkpt lat="51.114881" lon="6.352291">
        <ele>77.601804</ele>
        <time>2019-08-14T12:50:56.453Z</time>
      </trkpt>
      <trkpt lat="51.115013" lon="6.352392">
        <ele>77.596420</ele>
        <time>2019-08-14T12:50:57.924Z</time>
      </trkpt>
      <trkpt lat="51.115209" lon="6.352667">
        <ele>77.586815</ele>
        <time>2019-08-14T12:51:00.328Z</time>
      </trkpt>
      <trkpt lat="51.115492" lon="6.353113">
        <ele>77.589597</ele>
        <time>2019-08-14T12:51:04.025Z</time>
      </trkpt>
      <trkpt lat="51.115652" lon="6.353483">
        <ele>77.591706</ele>
        <time>2019-08-14T12:51:06.406Z</time>
      </trkpt>
      <trkpt lat="51.115844" lon="6.354030">
        <ele>77.594648</ele>
        <time>2019-08-14T12:51:09.743Z</time>
      </trkpt>
      <trkpt lat="51.115982" lon="6.354301">
        <ele>77.596286</ele>
        <time>2019-08-14T12:51:11.718Z</time>
      </trkpt>
      <trkpt lat="51.116253" lon="6.354582">
        <ele>77.598704</ele>
        <time>2019-08-14T12:51:14.636Z</time>
      </trkpt>
      <trkpt lat="51.116651" lon="6.354875">
        <ele>77.499529</ele>
        <time>2019-08-14T12:51:18.659Z</time>
      </trkpt>
      <trkpt lat="51.116855" lon="6.355017">
        <ele>77.410450</ele>
        <time>2019-08-14T12:51:20.709Z</time>
      </trkpt>
      <trkpt lat="51.117111" lon="6.355318">
        <ele>77.283136</ele>
        <time>2019-08-14T12:51:23.519Z</time>
      </trkpt>
      <trkpt lat="51.117429" lon="6.355811">
        <ele>77.105586</ele>
        <time>2019-08-14T12:51:27.027Z</time>
      </trkpt>
      <trkpt lat="51.117879" lon="6.354757">
        <ele>76.705568</ele>
        <time>2019-08-14T12:52:18.899Z</time>
      </trkpt>
      <trkpt lat="51.118445" lon="6.353622">
        <ele>76.035410</ele>
        <time>2019-08-14T12:52:28.489Z</time>
      </trkpt>
      <trkpt lat="51.119890" lon="6.350765">
        <ele>74.996918</ele>
        <time>2019-08-14T12:52:54.584Z</time>
      </trkpt>
      <trkpt lat="51.120090" lon="6.350501">
        <ele>74.931417</ele>
        <time>2019-08-14T12:52:57.763Z</time>
      </trkpt>
      <trkpt lat="51.121176" lon="6.351329">
        <ele>74.762793</ele>
        <time>2019-08-14T12:53:12.109Z</time>
      </trkpt>
      <trkpt lat="51.121243" lon="6.351386">
        <ele>74.752155</ele>
        <time>2019-08-14T12:53:13.021Z</time>
      </trkpt>
      <trkpt lat="51.121717" lon="6.351791">
        <ele>74.665490</ele>
        <time>2019-08-14T12:53:19.295Z</time>
      </trkpt>
      <trkpt lat="51.122564" lon="6.352514">
        <ele>74.448378</ele>
        <time>2019-08-14T12:53:30.376Z</time>
      </trkpt>
      <trkpt lat="51.122655" lon="6.352594">
        <ele>74.424894</ele>
        <time>2019-08-14T12:53:31.560Z</time>
      </trkpt>
      <trkpt lat="51.124066" lon="6.353937">
        <ele>74.160484</ele>
        <time>2019-08-14T12:53:50.809Z</time>
      </trkpt>
      <trkpt lat="51.124812" lon="6.354695">
        <ele>74.107457</ele>
        <time>2019-08-14T12:54:01.462Z</time>
      </trkpt>
      <trkpt lat="51.125641" lon="6.355539">
        <ele>74.417287</ele>
        <time>2019-08-14T12:54:13.800Z</time>
      </trkpt>
      <trkpt lat="51.126085" lon="6.355814">
        <ele>74.567312</ele>
        <time>2019-08-14T12:54:20.003Z</time>
      </trkpt>
      <trkpt lat="51.126474" lon="6.356128">
        <ele>74.865094</ele>
        <time>2019-08-14T12:54:26.087Z</time>
      </trkpt>
      <trkpt lat="51.126930" lon="6.356271">
        <ele>75.342171</ele>
        <time>2019-08-14T12:54:32.827Z</time>
      </trkpt>
      <trkpt lat="51.127310" lon="6.356519">
        <ele>75.763704</ele>
        <time>2019-08-14T12:54:39.015Z</time>
      </trkpt>
      <trkpt lat="51.127569" lon="6.356697">
        <ele>76.053251</ele>
        <time>2019-08-14T12:54:43.376Z</time>
      </trkpt>
      <trkpt lat="51.127764" lon="6.356843">
        <ele>76.274421</ele>
        <time>2019-08-14T12:54:46.839Z</time>
      </trkpt>
      <trkpt lat="51.127844" lon="6.356934">
        <ele>76.375322</ele>
        <time>2019-08-14T12:54:48.356Z</time>
      </trkpt>
      <trkpt lat="51.129068" lon="6.359683">
        <ele>77.822880</ele>
        <time>2019-08-14T12:55:18.181Z</time>
      </trkpt>
      <trkpt lat="51.129179" lon="6.359959">
        <ele>77.756120</ele>
        <time>2019-08-14T12:55:20.499Z</time>
      </trkpt>
      <trkpt lat="51.129243" lon="6.360335">
        <ele>77.676779</ele>
        <time>2019-08-14T12:55:23.328Z</time>
      </trkpt>
      <trkpt lat="51.129273" lon="6.360509">
        <ele>77.640030</ele>
        <time>2019-08-14T12:55:24.601Z</time>
      </trkpt>
      <trkpt lat="51.129323" lon="6.360595">
        <ele>77.616154</ele>
        <time>2019-08-14T12:55:25.462Z</time>
      </trkpt>
      <trkpt lat="51.129782" lon="6.361016">
        <ele>77.444288</ele>
        <time>2019-08-14T12:55:31.091Z</time>
      </trkpt>
      <trkpt lat="51.130633" lon="6.361505">
        <ele>77.158941</ele>
        <time>2019-08-14T12:55:40.828Z</time>
      </trkpt>
      <trkpt lat="51.130739" lon="6.361552">
        <ele>77.125092</ele>
        <time>2019-08-14T12:55:42.108Z</time>
      </trkpt>
      <trkpt lat="51.130819" lon="6.361588">
        <ele>77.099518</ele>
        <time>2019-08-14T12:55:43.066Z</time>
      </trkpt>
      <trkpt lat="51.131193" lon="6.361646">
        <ele>76.983916</ele>
        <time>2019-08-14T12:55:47.554Z</time>
      </trkpt>
      <trkpt lat="51.131363" lon="6.361680">
        <ele>76.931206</ele>
        <time>2019-08-14T12:55:49.725Z</time>
      </trkpt>
      <trkpt lat="51.133141" lon="6.362221">
        <ele>76.268099</ele>
        <time>2019-08-14T12:56:10.808Z</time>
      </trkpt>
      <trkpt lat="51.133403" lon="6.362383">
        <ele>76.157547</ele>
        <time>2019-08-14T12:56:13.908Z</time>
      </trkpt>
      <trkpt lat="51.133540" lon="6.362449">
        <ele>76.101245</ele>
        <time>2019-08-14T12:56:15.438Z</time>
      </trkpt>
      <trkpt lat="51.133686" lon="6.362445">
        <ele>76.040184</ele>
        <time>2019-08-14T12:56:17.045Z</time>
      </trkpt>
      <trkpt lat="51.133887" lon="6.362416">
        <ele>75.891866</ele>
        <time>2019-08-14T12:56:19.196Z</time>
      </trkpt>
      <trkpt lat="51.134705" lon="6.362148">
        <ele>75.278148</ele>
        <time>2019-08-14T12:56:28.030Z</time>
      </trkpt>
      <trkpt lat="51.134596" lon="6.358625">
        <ele>73.947659</ele>
        <time>2019-08-14T12:58:52.909Z</time>
      </trkpt>
      <trkpt lat="51.134781" lon="6.357148">
        <ele>73.670054</ele>
        <time>2019-08-14T12:59:55.643Z</time>
      </trkpt>
      <trkpt lat="51.134981" lon="6.355556">
        <ele>73.505197</ele>
        <time>2019-08-14T13:01:03.589Z</time>
      </trkpt>
      <trkpt lat="51.135471" lon="6.352923">
        <ele>73.397938</ele>
        <time>2019-08-14T13:02:58.548Z</time>
      </trkpt>
      <trkpt lat="51.135757" lon="6.351388">
        <ele>73.390289</ele>
        <time>2019-08-14T13:04:06.166Z</time>
      </trkpt>
      <trkpt lat="51.136059" lon="6.350768">
        <ele>73.393528</ele>
        <time>2019-08-14T13:04:10.597Z</time>
      </trkpt>
      <trkpt lat="51.136382" lon="6.350067">
        <ele>73.397118</ele>
        <time>2019-08-14T13:04:15.349Z</time>
      </trkpt>
      <trkpt lat="51.136531" lon="6.349808">
        <ele>73.330606</ele>
        <time>2019-08-14T13:04:17.207Z</time>
      </trkpt>
      <trkpt lat="51.137052" lon="6.349096">
        <ele>73.121413</ele>
        <time>2019-08-14T13:04:22.987Z</time>
      </trkpt>
      <trkpt lat="51.137356" lon="6.348439">
        <ele>72.965289</ele>
        <time>2019-08-14T13:04:27.252Z</time>
      </trkpt>
      <trkpt lat="51.137428" lon="6.348304">
        <ele>72.931403</ele>
        <time>2019-08-14T13:04:28.108Z</time>
      </trkpt>
      <trkpt lat="51.137654" lon="6.347805">
        <ele>72.784968</ele>
        <time>2019-08-14T13:04:31.168Z</time>
      </trkpt>
      <trkpt lat="51.137794" lon="6.347489">
        <ele>72.650575</ele>
        <time>2019-08-14T13:04:33.104Z</time>
      </trkpt>
      <trkpt lat="51.137879" lon="6.347298">
        <ele>72.569223</ele>
        <time>2019-08-14T13:04:34.242Z</time>
      </trkpt>
      <trkpt lat="51.138175" lon="6.346660">
        <ele>72.293559</ele>
        <time>2019-08-14T13:04:38.134Z</time>
      </trkpt>
      <trkpt lat="51.138303" lon="6.346402">
        <ele>72.179292</ele>
        <time>2019-08-14T13:04:39.723Z</time>
      </trkpt>
      <trkpt lat="51.138500" lon="6.345983">
        <ele>71.997392</ele>
        <time>2019-08-14T13:04:42.344Z</time>
      </trkpt>
      <trkpt lat="51.139004" lon="6.344952">
        <ele>71.528001</ele>
        <time>2019-08-14T13:04:48.863Z</time>
      </trkpt>
      <trkpt lat="51.139072" lon="6.344840">
        <ele>71.471176</ele>
        <time>2019-08-14T13:04:49.632Z</time>
      </trkpt>
      <trkpt lat="51.139135" lon="6.344727">
        <ele>71.416060</ele>
        <time>2019-08-14T13:04:50.350Z</time>
      </trkpt>
      <trkpt lat="51.139228" lon="6.344562">
        <ele>71.335189</ele>
        <time>2019-08-14T13:04:51.413Z</time>
      </trkpt>
      <trkpt lat="51.139553" lon="6.344021">
        <ele>71.062101</ele>
        <time>2019-08-14T13:04:55.035Z</time>
      </trkpt>
      <trkpt lat="51.140817" lon="6.341667">
        <ele>70.213633</ele>
        <time>2019-08-14T13:05:10.588Z</time>
      </trkpt>
      <trkpt lat="51.141861" lon="6.339717">
        <ele>70.034540</ele>
        <time>2019-08-14T13:05:24.578Z</time>
      </trkpt>
      <trkpt lat="51.141924" lon="6.339545">
        <ele>70.028483</ele>
        <time>2019-08-14T13:05:25.739Z</time>
      </trkpt>
      <trkpt lat="51.141797" lon="6.339086">
        <ele>70.013226</ele>
        <time>2019-08-14T13:05:28.629Z</time>
      </trkpt>
      <trkpt lat="51.141741" lon="6.338900">
        <ele>70.016142</ele>
        <time>2019-08-14T13:05:29.875Z</time>
      </trkpt>
      <trkpt lat="51.141669" lon="6.338610">
        <ele>70.027448</ele>
        <time>2019-08-14T13:05:31.675Z</time>
      </trkpt>
      <trkpt lat="51.141617" lon="6.337868">
        <ele>70.054513</ele>
        <time>2019-08-14T13:05:36.174Z</time>
      </trkpt>
      <trkpt lat="51.141478" lon="6.337216">
        <ele>70.079476</ele>
        <time>2019-08-14T13:05:40.361Z</time>
      </trkpt>
      <trkpt lat="51.141414" lon="6.336673">
        <ele>70.099504</ele>
        <time>2019-08-14T13:05:43.385Z</time>
      </trkpt>
      <trkpt lat="51.141432" lon="6.336002">
        <ele>70.050958</ele>
        <time>2019-08-14T13:05:46.790Z</time>
      </trkpt>
      <trkpt lat="51.141504" lon="6.335780">
        <ele>69.984825</ele>
        <time>2019-08-14T13:05:48.044Z</time>
      </trkpt>
      <trkpt lat="51.141590" lon="6.335675">
        <ele>69.939131</ele>
        <time>2019-08-14T13:05:48.955Z</time>
      </trkpt>
      <trkpt lat="51.141931" lon="6.335526">
        <ele>69.789993</ele>
        <time>2019-08-14T13:05:51.807Z</time>
      </trkpt>
      <trkpt lat="51.142126" lon="6.335364">
        <ele>69.697242</ele>
        <time>2019-08-14T13:05:53.540Z</time>
      </trkpt>
      <trkpt lat="51.142364" lon="6.335027">
        <ele>69.562964</ele>
        <time>2019-08-14T13:05:56.108Z</time>
      </trkpt>
      <trkpt lat="51.142681" lon="6.334600">
        <ele>69.387905</ele>
        <time>2019-08-14T13:05:59.481Z</time>
      </trkpt>
      <trkpt lat="51.143239" lon="6.334087">
        <ele>69.104674</ele>
        <time>2019-08-14T13:06:04.590Z</time>
      </trkpt>
      <trkpt lat="51.143494" lon="6.333759">
        <ele>68.959831</ele>
        <time>2019-08-14T13:06:07.191Z</time>
      </trkpt>
      <trkpt lat="51.143659" lon="6.333484">
        <ele>68.854306</ele>
        <time>2019-08-14T13:06:09.172Z</time>
      </trkpt>
      <trkpt lat="51.143941" lon="6.333098">
        <ele>68.689998</ele>
        <time>2019-08-14T13:06:12.216Z</time>
      </trkpt>
      <trkpt lat="51.144507" lon="6.332332">
        <ele>68.409885</ele>
        <time>2019-08-14T13:06:18.231Z</time>
      </trkpt>
      <trkpt lat="51.145012" lon="6.332120">
        <ele>68.234677</ele>
        <time>2019-08-14T13:06:22.338Z</time>
      </trkpt>
      <trkpt lat="51.145698" lon="6.331833">
        <ele>67.996723</ele>
        <time>2019-08-14T13:06:28.172Z</time>
      </trkpt>
      <trkpt lat="51.146295" lon="6.331357">
        <ele>68.081667</ele>
        <time>2019-08-14T13:06:34.068Z</time>
      </trkpt>
      <trkpt lat="51.146912" lon="6.330762">
        <ele>68.243419</ele>
        <time>2019-08-14T13:06:41.162Z</time>
      </trkpt>
      <trkpt lat="51.147437" lon="6.330149">
        <ele>68.370451</ele>
        <time>2019-08-14T13:06:47.621Z</time>
      </trkpt>
      <trkpt lat="51.147531" lon="6.330011">
        <ele>68.379757</ele>
        <time>2019-08-14T13:06:48.945Z</time>
      </trkpt>
      <trkpt lat="51.147830" lon="6.329568">
        <ele>68.409484</ele>
        <time>2019-08-14T13:06:52.967Z</time>
      </trkpt>
      <trkpt lat="51.148008" lon="6.329155">
        <ele>68.432375</ele>
        <time>2019-08-14T13:06:55.918Z</time>
      </trkpt>
      <trkpt lat="51.148081" lon="6.329034">
        <ele>68.440044</ele>
        <time>2019-08-14T13:06:56.825Z</time>
      </trkpt>
      <trkpt lat="51.148094" lon="6.329012">
        <ele>68.441425</ele>
        <time>2019-08-14T13:06:56.994Z</time>
      </trkpt>
      <trkpt lat="51.148111" lon="6.328984">
        <ele>68.443205</ele>
        <time>2019-08-14T13:06:57.215Z</time>
      </trkpt>
      <trkpt lat="51.148113" lon="6.328980">
        <ele>68.443439</ele>
        <time>2019-08-14T13:06:57.237Z</time>
      </trkpt>
      <trkpt lat="51.148215" lon="6.328816">
        <ele>68.453989</ele>
        <time>2019-08-14T13:06:58.505Z</time>
      </trkpt>
      <trkpt lat="51.148322" lon="6.328607">
        <ele>68.466313</ele>
        <time>2019-08-14T13:06:59.965Z</time>
      </trkpt>
      <trkpt lat="51.148835" lon="6.327556">
        <ele>68.298048</ele>
        <time>2019-08-14T13:07:06.764Z</time>
      </trkpt>
      <trkpt lat="51.149674" lon="6.325766">
        <ele>67.744986</ele>
        <time>2019-08-14T13:07:17.978Z</time>
      </trkpt>
      <trkpt lat="51.149789" lon="6.325538">
        <ele>67.707748</ele>
        <time>2019-08-14T13:07:19.483Z</time>
      </trkpt>
      <trkpt lat="51.150339" lon="6.324419">
        <ele>67.526805</ele>
        <time>2019-08-14T13:07:27.314Z</time>
      </trkpt>
      <trkpt lat="51.150700" lon="6.323776">
        <ele>67.416971</ele>
        <time>2019-08-14T13:07:31.887Z</time>
      </trkpt>
      <trkpt lat="51.150941" lon="6.323296">
        <ele>67.246909</ele>
        <time>2019-08-14T13:07:35.220Z</time>
      </trkpt>
      <trkpt lat="51.151135" lon="6.322750">
        <ele>67.040129</ele>
        <time>2019-08-14T13:07:38.503Z</time>
      </trkpt>
      <trkpt lat="51.151178" lon="6.322598">
        <ele>66.985183</ele>
        <time>2019-08-14T13:07:39.373Z</time>
      </trkpt>
      <trkpt lat="51.151450" lon="6.321652">
        <ele>66.642266</ele>
        <time>2019-08-14T13:07:44.417Z</time>
      </trkpt>
      <trkpt lat="51.151898" lon="6.319832">
        <ele>65.951480</ele>
        <time>2019-08-14T13:07:53.552Z</time>
      </trkpt>
      <trkpt lat="51.151915" lon="6.319583">
        <ele>65.860478</ele>
        <time>2019-08-14T13:07:54.670Z</time>
      </trkpt>
      <trkpt lat="51.151921" lon="6.319171">
        <ele>65.710748</ele>
        <time>2019-08-14T13:07:56.923Z</time>
      </trkpt>
      <trkpt lat="51.151895" lon="6.318614">
        <ele>65.507817</ele>
        <time>2019-08-14T13:07:59.885Z</time>
      </trkpt>
      <trkpt lat="51.151893" lon="6.318486">
        <ele>65.461297</ele>
        <time>2019-08-14T13:08:00.453Z</time>
      </trkpt>
      <trkpt lat="51.151777" lon="6.317988">
        <ele>65.456004</ele>
        <time>2019-08-14T13:08:03.491Z</time>
      </trkpt>
      <trkpt lat="51.151764" lon="6.317948">
        <ele>65.461350</ele>
        <time>2019-08-14T13:08:03.675Z</time>
      </trkpt>
      <trkpt lat="51.151668" lon="6.317712">
        <ele>65.494729</ele>
        <time>2019-08-14T13:08:05.568Z</time>
      </trkpt>
      <trkpt lat="51.151302" lon="6.316495">
        <ele>65.654889</ele>
        <time>2019-08-14T13:08:13.515Z</time>
      </trkpt>
      <trkpt lat="51.151297" lon="6.316104">
        <ele>65.701298</ele>
        <time>2019-08-14T13:08:15.977Z</time>
      </trkpt>
      <trkpt lat="51.151410" lon="6.315523">
        <ele>65.805305</ele>
        <time>2019-08-14T13:08:19.803Z</time>
      </trkpt>
      <trkpt lat="51.151740" lon="6.314929">
        <ele>66.027407</ele>
        <time>2019-08-14T13:08:24.530Z</time>
      </trkpt>
      <trkpt lat="51.151834" lon="6.314635">
        <ele>66.119773</ele>
        <time>2019-08-14T13:08:26.585Z</time>
      </trkpt>
      <trkpt lat="51.151864" lon="6.314285">
        <ele>66.218651</ele>
        <time>2019-08-14T13:08:28.644Z</time>
      </trkpt>
      <trkpt lat="51.152035" lon="6.312553">
        <ele>66.847943</ele>
        <time>2019-08-14T13:08:39.942Z</time>
      </trkpt>
      <trkpt lat="51.152134" lon="6.310920">
        <ele>67.713032</ele>
        <time>2019-08-14T13:08:51.769Z</time>
      </trkpt>
      <trkpt lat="51.152162" lon="6.310520">
        <ele>67.925261</ele>
        <time>2019-08-14T13:08:54.433Z</time>
      </trkpt>
      <trkpt lat="51.152165" lon="6.310496">
        <ele>67.938164</ele>
        <time>2019-08-14T13:08:54.868Z</time>
      </trkpt>
      <trkpt lat="51.152182" lon="6.310244">
        <ele>68.064466</ele>
        <time>2019-08-14T13:08:56.477Z</time>
      </trkpt>
      <trkpt lat="51.152270" lon="6.309994">
        <ele>68.059459</ele>
        <time>2019-08-14T13:08:58.301Z</time>
      </trkpt>
      <trkpt lat="51.152660" lon="6.309505">
        <ele>68.045643</ele>
        <time>2019-08-14T13:09:03.207Z</time>
      </trkpt>
      <trkpt lat="51.152744" lon="6.309299">
        <ele>68.041351</ele>
        <time>2019-08-14T13:09:04.547Z</time>
      </trkpt>
      <trkpt lat="51.152932" lon="6.308065">
        <ele>68.019171</ele>
        <time>2019-08-14T13:09:11.277Z</time>
      </trkpt>
      <trkpt lat="51.152909" lon="6.307262">
        <ele>67.727287</ele>
        <time>2019-08-14T13:09:15.012Z</time>
      </trkpt>
      <trkpt lat="51.152895" lon="6.306739">
        <ele>67.450324</ele>
        <time>2019-08-14T13:09:17.421Z</time>
      </trkpt>
      <trkpt lat="51.152719" lon="6.302977">
        <ele>65.724808</ele>
        <time>2019-08-14T13:09:35.152Z</time>
      </trkpt>
      <trkpt lat="51.152699" lon="6.302531">
        <ele>65.549568</ele>
        <time>2019-08-14T13:09:37.612Z</time>
      </trkpt>
      <trkpt lat="51.152681" lon="6.302020">
        <ele>65.382409</ele>
        <time>2019-08-14T13:09:40.302Z</time>
      </trkpt>
      <trkpt lat="51.152683" lon="6.301395">
        <ele>65.469651</ele>
        <time>2019-08-14T13:09:43.812Z</time>
      </trkpt>
      <trkpt lat="51.152760" lon="6.300880">
        <ele>65.543551</ele>
        <time>2019-08-14T13:09:46.868Z</time>
      </trkpt>
      <trkpt lat="51.152871" lon="6.300191">
        <ele>65.642846</ele>
        <time>2019-08-14T13:09:51.269Z</time>
      </trkpt>
      <trkpt lat="51.152879" lon="6.300141">
        <ele>65.650049</ele>
        <time>2019-08-14T13:09:51.576Z</time>
      </trkpt>
      <trkpt lat="51.152896" lon="6.299979">
        <ele>65.672976</ele>
        <time>2019-08-14T13:09:52.550Z</time>
      </trkpt>
      <trkpt lat="51.152892" lon="6.299799">
        <ele>65.698117</ele>
        <time>2019-08-14T13:09:53.759Z</time>
      </trkpt>
      <trkpt lat="51.152888" lon="6.299731">
        <ele>65.707650</ele>
        <time>2019-08-14T13:09:54.251Z</time>
      </trkpt>
      <trkpt lat="51.152857" lon="6.299402">
        <ele>65.754089</ele>
        <time>2019-08-14T13:09:56.338Z</time>
      </trkpt>
      <trkpt lat="51.152848" lon="6.299334">
        <ele>65.763790</ele>
        <time>2019-08-14T13:09:56.778Z</time>
      </trkpt>
      <trkpt lat="51.152831" lon="6.299171">
        <ele>65.788160</ele>
        <time>2019-08-14T13:09:57.948Z</time>
      </trkpt>
      <trkpt lat="51.152761" lon="6.298393">
        <ele>65.908918</ele>
        <time>2019-08-14T13:10:02.723Z</time>
      </trkpt>
      <trkpt lat="51.152786" lon="6.297838">
        <ele>65.994410</ele>
        <time>2019-08-14T13:10:06.066Z</time>
      </trkpt>
      <trkpt lat="51.153218" lon="6.295779">
        <ele>66.057638</ele>
        <time>2019-08-14T13:10:18.735Z</time>
      </trkpt>
      <trkpt lat="51.153371" lon="6.294947">
        <ele>65.873598</ele>
        <time>2019-08-14T13:10:23.375Z</time>
      </trkpt>
      <trkpt lat="51.153398" lon="6.294811">
        <ele>65.843319</ele>
        <time>2019-08-14T13:10:24.044Z</time>
      </trkpt>
      <trkpt lat="51.153541" lon="6.294320">
        <ele>65.728409</ele>
        <time>2019-08-14T13:10:26.771Z</time>
      </trkpt>
      <trkpt lat="51.153874" lon="6.293839">
        <ele>65.514343</ele>
        <time>2019-08-14T13:10:30.073Z</time>
      </trkpt>
      <trkpt lat="51.154698" lon="6.292981">
        <ele>64.479889</ele>
        <time>2019-08-14T13:10:37.202Z</time>
      </trkpt>
      <trkpt lat="51.154940" lon="6.292517">
        <ele>64.082051</ele>
        <time>2019-08-14T13:10:40.025Z</time>
      </trkpt>
      <trkpt lat="51.154984" lon="6.292373">
        <ele>63.976452</ele>
        <time>2019-08-14T13:10:40.771Z</time>
      </trkpt>
      <trkpt lat="51.154983" lon="6.292143">
        <ele>63.824818</ele>
        <time>2019-08-14T13:10:41.804Z</time>
      </trkpt>
      <trkpt lat="51.154946" lon="6.291932">
        <ele>63.680444</ele>
        <time>2019-08-14T13:10:42.783Z</time>
      </trkpt>
      <trkpt lat="51.154526" lon="6.290590">
        <ele>62.693513</ele>
        <time>2019-08-14T13:10:49.556Z</time>
      </trkpt>
      <trkpt lat="51.154465" lon="6.290203">
        <ele>62.430929</ele>
        <time>2019-08-14T13:10:51.418Z</time>
      </trkpt>
      <trkpt lat="51.154472" lon="6.290114">
        <ele>62.371904</ele>
        <time>2019-08-14T13:10:51.817Z</time>
      </trkpt>
      <trkpt lat="51.154483" lon="6.289962">
        <ele>62.271217</ele>
        <time>2019-08-14T13:10:52.506Z</time>
      </trkpt>
      <trkpt lat="51.154509" lon="6.289823">
        <ele>62.175767</ele>
        <time>2019-08-14T13:10:53.130Z</time>
      </trkpt>
      <trkpt lat="51.154961" lon="6.288900">
        <ele>61.646030</ele>
        <time>2019-08-14T13:10:58.723Z</time>
      </trkpt>
      <trkpt lat="51.155117" lon="6.288425">
        <ele>61.494085</ele>
        <time>2019-08-14T13:11:01.267Z</time>
      </trkpt>
      <trkpt lat="51.155190" lon="6.288020">
        <ele>61.374669</ele>
        <time>2019-08-14T13:11:03.486Z</time>
      </trkpt>
      <trkpt lat="51.155190" lon="6.287982">
        <ele>61.363900</ele>
        <time>2019-08-14T13:11:03.616Z</time>
      </trkpt>
      <trkpt lat="51.155190" lon="6.287825">
        <ele>61.319408</ele>
        <time>2019-08-14T13:11:04.368Z</time>
      </trkpt>
      <trkpt lat="51.155137" lon="6.287479">
        <ele>61.218475</ele>
        <time>2019-08-14T13:11:06.360Z</time>
      </trkpt>
      <trkpt lat="51.154769" lon="6.285084">
        <ele>61.730811</ele>
        <time>2019-08-14T13:11:20.885Z</time>
      </trkpt>
      <trkpt lat="51.154418" lon="6.282858">
        <ele>62.897851</ele>
        <time>2019-08-14T13:11:38.479Z</time>
      </trkpt>
      <trkpt lat="51.154352" lon="6.282440">
        <ele>63.157809</ele>
        <time>2019-08-14T13:11:41.833Z</time>
      </trkpt>
      <trkpt lat="51.154329" lon="6.282293">
        <ele>63.249180</ele>
        <time>2019-08-14T13:11:42.760Z</time>
      </trkpt>
      <trkpt lat="51.154261" lon="6.281801">
        <ele>63.553020</ele>
        <time>2019-08-14T13:11:46.351Z</time>
      </trkpt>
      <trkpt lat="51.154224" lon="6.281493">
        <ele>63.742149</ele>
        <time>2019-08-14T13:11:48.372Z</time>
      </trkpt>
      <trkpt lat="51.154225" lon="6.281387">
        <ele>63.806084</ele>
        <time>2019-08-14T13:11:49.344Z</time>
      </trkpt>
      <trkpt lat="51.154334" lon="6.281429">
        <ele>63.913908</ele>
        <time>2019-08-14T13:11:50.283Z</time>
      </trkpt>
      <trkpt lat="51.154437" lon="6.281402">
        <ele>63.879644</ele>
        <time>2019-08-14T13:11:51.304Z</time>
      </trkpt>
      <trkpt lat="51.157048" lon="6.282304">
        <ele>62.982893</ele>
        <time>2019-08-14T13:12:12.355Z</time>
      </trkpt>
      <trkpt lat="51.157271" lon="6.282343">
        <ele>62.922103</ele>
        <time>2019-08-14T13:12:14.130Z</time>
      </trkpt>
      <trkpt lat="51.157313" lon="6.282346">
        <ele>62.910711</ele>
        <time>2019-08-14T13:12:14.488Z</time>
      </trkpt>
      <trkpt lat="51.157389" lon="6.282343">
        <ele>62.890110</ele>
        <time>2019-08-14T13:12:15.081Z</time>
      </trkpt>
      <trkpt lat="51.158599" lon="6.282366">
        <ele>63.655879</ele>
        <time>2019-08-14T13:12:26.844Z</time>
      </trkpt>
      <trkpt lat="51.158929" lon="6.282620">
        <ele>64.107315</ele>
        <time>2019-08-14T13:12:31.503Z</time>
      </trkpt>
      <trkpt lat="51.159092" lon="6.282865">
        <ele>64.383282</ele>
        <time>2019-08-14T13:12:34.573Z</time>
      </trkpt>
      <trkpt lat="51.159202" lon="6.283028">
        <ele>64.568282</ele>
        <time>2019-08-14T13:12:36.563Z</time>
      </trkpt>
      <trkpt lat="51.159282" lon="6.283115">
        <ele>64.687579</ele>
        <time>2019-08-14T13:12:38.238Z</time>
      </trkpt>
      <trkpt lat="51.159667" lon="6.283364">
        <ele>65.269520</ele>
        <time>2019-08-14T13:12:43.745Z</time>
      </trkpt>
      <trkpt lat="51.160103" lon="6.283547">
        <ele>65.998652</ele>
        <time>2019-08-14T13:12:49.661Z</time>
      </trkpt>
      <trkpt lat="51.160239" lon="6.283563">
        <ele>66.219194</ele>
        <time>2019-08-14T13:12:51.741Z</time>
      </trkpt>
      <trkpt lat="51.160343" lon="6.283574">
        <ele>66.387755</ele>
        <time>2019-08-14T13:12:53.333Z</time>
      </trkpt>
      <trkpt lat="51.161383" lon="6.283605">
        <ele>67.908773</ele>
        <time>2019-08-14T13:13:05.953Z</time>
      </trkpt>
      <trkpt lat="51.161710" lon="6.283649">
        <ele>67.979290</ele>
        <time>2019-08-14T13:13:09.485Z</time>
      </trkpt>
      <trkpt lat="51.162262" lon="6.283722">
        <ele>68.098314</ele>
        <time>2019-08-14T13:13:14.286Z</time>
      </trkpt>
      <trkpt lat="51.163538" lon="6.283859">
        <ele>68.265651</ele>
        <time>2019-08-14T13:13:25.166Z</time>
      </trkpt>
      <trkpt lat="51.163971" lon="6.283920">
        <ele>68.261168</ele>
        <time>2019-08-14T13:13:28.959Z</time>
      </trkpt>
      <trkpt lat="51.164119" lon="6.283909">
        <ele>68.259640</ele>
        <time>2019-08-14T13:13:30.279Z</time>
      </trkpt>
      <trkpt lat="51.165624" lon="6.283876">
        <ele>68.355347</ele>
        <time>2019-08-14T13:13:44.425Z</time>
      </trkpt>
      <trkpt lat="51.165731" lon="6.283843">
        <ele>68.370036</ele>
        <time>2019-08-14T13:13:45.471Z</time>
      </trkpt>
      <trkpt lat="51.165921" lon="6.283811">
        <ele>68.395788</ele>
        <time>2019-08-14T13:13:47.248Z</time>
      </trkpt>
      <trkpt lat="51.166564" lon="6.283679">
        <ele>68.483169</ele>
        <time>2019-08-14T13:13:53.039Z</time>
      </trkpt>
      <trkpt lat="51.166694" lon="6.283718">
        <ele>68.487846</ele>
        <time>2019-08-14T13:13:54.186Z</time>
      </trkpt>
      <trkpt lat="51.166779" lon="6.283765">
        <ele>68.475615</ele>
        <time>2019-08-14T13:13:55.002Z</time>
      </trkpt>
      <trkpt lat="51.167033" lon="6.283904">
        <ele>68.439106</ele>
        <time>2019-08-14T13:13:57.323Z</time>
      </trkpt>
      <trkpt lat="51.167101" lon="6.283962">
        <ele>68.428621</ele>
        <time>2019-08-14T13:13:58.020Z</time>
      </trkpt>
      <trkpt lat="51.167125" lon="6.283884">
        <ele>68.421214</ele>
        <time>2019-08-14T13:14:01.658Z</time>
      </trkpt>
      <trkpt lat="51.167280" lon="6.283979">
        <ele>68.398638</ele>
        <time>2019-08-14T13:14:03.120Z</time>
      </trkpt>
      <trkpt lat="51.167457" lon="6.284087">
        <ele>68.372873</ele>
        <time>2019-08-14T13:14:04.769Z</time>
      </trkpt>
      <trkpt lat="51.167769" lon="6.284277">
        <ele>68.327467</ele>
        <time>2019-08-14T13:14:07.635Z</time>
      </trkpt>
      <trkpt lat="51.167900" lon="6.284373">
        <ele>68.307867</ele>
        <time>2019-08-14T13:14:08.841Z</time>
      </trkpt>
      <trkpt lat="51.168212" lon="6.284601">
        <ele>68.261207</ele>
        <time>2019-08-14T13:14:11.721Z</time>
      </trkpt>
      <trkpt lat="51.168286" lon="6.284643">
        <ele>68.250528</ele>
        <time>2019-08-14T13:14:12.378Z</time>
      </trkpt>
      <trkpt lat="51.168491" lon="6.284761">
        <ele>68.159036</ele>
        <time>2019-08-14T13:14:14.176Z</time>
      </trkpt>
      <trkpt lat="51.168652" lon="6.284823">
        <ele>68.088512</ele>
        <time>2019-08-14T13:14:15.563Z</time>
      </trkpt>
      <trkpt lat="51.168779" lon="6.284878">
        <ele>68.032477</ele>
        <time>2019-08-14T13:14:16.660Z</time>
      </trkpt>
      <trkpt lat="51.168957" lon="6.285007">
        <ele>67.949225</ele>
        <time>2019-08-14T13:14:18.289Z</time>
      </trkpt>
      <trkpt lat="51.169062" lon="6.285076">
        <ele>67.900869</ele>
        <time>2019-08-14T13:14:19.211Z</time>
      </trkpt>
      <trkpt lat="51.169316" lon="6.285271">
        <ele>67.780837</ele>
        <time>2019-08-14T13:14:21.529Z</time>
      </trkpt>
      <trkpt lat="51.169418" lon="6.285383">
        <ele>67.728106</ele>
        <time>2019-08-14T13:14:22.536Z</time>
      </trkpt>
      <trkpt lat="51.169607" lon="6.285508">
        <ele>67.640984</ele>
        <time>2019-08-14T13:14:24.189Z</time>
      </trkpt>
      <trkpt lat="51.170012" lon="6.285780">
        <ele>67.420846</ele>
        <time>2019-08-14T13:14:27.619Z</time>
      </trkpt>
      <trkpt lat="51.170054" lon="6.285807">
        <ele>67.380466</ele>
        <time>2019-08-14T13:14:27.965Z</time>
      </trkpt>
      <trkpt lat="51.170210" lon="6.285914">
        <ele>67.229041</ele>
        <time>2019-08-14T13:14:29.283Z</time>
      </trkpt>
      <trkpt lat="51.170313" lon="6.285985">
        <ele>67.128984</ele>
        <time>2019-08-14T13:14:30.092Z</time>
      </trkpt>
      <trkpt lat="51.170788" lon="6.286289">
        <ele>66.672593</ele>
        <time>2019-08-14T13:14:33.833Z</time>
      </trkpt>
      <trkpt lat="51.172240" lon="6.287426">
        <ele>65.340388</ele>
        <time>2019-08-14T13:14:50.824Z</time>
      </trkpt>
      <trkpt lat="51.172463" lon="6.287601">
        <ele>65.156340</ele>
        <time>2019-08-14T13:14:53.669Z</time>
      </trkpt>
      <trkpt lat="51.172585" lon="6.287696">
        <ele>65.055802</ele>
        <time>2019-08-14T13:14:55.251Z</time>
      </trkpt>
      <trkpt lat="51.173421" lon="6.288324">
        <ele>64.399723</ele>
        <time>2019-08-14T13:15:05.115Z</time>
      </trkpt>
      <trkpt lat="51.173669" lon="6.288472">
        <ele>64.234970</ele>
        <time>2019-08-14T13:15:08.031Z</time>
      </trkpt>
      <trkpt lat="51.174185" lon="6.288778">
        <ele>63.892440</ele>
        <time>2019-08-14T13:15:14.104Z</time>
      </trkpt>
      <trkpt lat="51.174762" lon="6.289139">
        <ele>63.506797</ele>
        <time>2019-08-14T13:15:20.918Z</time>
      </trkpt>
      <trkpt lat="51.175437" lon="6.289556">
        <ele>63.624401</ele>
        <time>2019-08-14T13:15:28.707Z</time>
      </trkpt>
      <trkpt lat="51.176180" lon="6.290031">
        <ele>63.885406</ele>
        <time>2019-08-14T13:15:39.001Z</time>
      </trkpt>
      <trkpt lat="51.176854" lon="6.290463">
        <ele>64.765409</ele>
        <time>2019-08-14T13:15:50.596Z</time>
      </trkpt>
      <trkpt lat="51.177238" lon="6.290802">
        <ele>65.771295</ele>
        <time>2019-08-14T13:15:58.355Z</time>
      </trkpt>
      <trkpt lat="51.177696" lon="6.291364">
        <ele>67.095638</ele>
        <time>2019-08-14T13:16:09.112Z</time>
      </trkpt>
      <trkpt lat="51.178720" lon="6.292619">
        <ele>70.089377</ele>
        <time>2019-08-14T13:16:33.059Z</time>
      </trkpt>
      <trkpt lat="51.178721" lon="6.292446">
        <ele>70.342373</ele>
        <time>2019-08-14T13:16:34.595Z</time>
      </trkpt>
      <trkpt lat="51.178699" lon="6.290152">
        <ele>72.755024</ele>
        <time>2019-08-14T13:16:54.617Z</time>
      </trkpt>
      <trkpt lat="51.178651" lon="6.288453">
        <ele>73.523641</ele>
        <time>2019-08-14T13:17:04.980Z</time>
      </trkpt>
      <trkpt lat="51.178642" lon="6.287917">
        <ele>73.330739</ele>
        <time>2019-08-14T13:17:07.576Z</time>
      </trkpt>
      <trkpt lat="51.178641" lon="6.286689">
        <ele>72.106696</ele>
        <time>2019-08-14T13:17:13.085Z</time>
      </trkpt>
      <trkpt lat="51.178982" lon="6.285714">
        <ele>70.993827</ele>
        <time>2019-08-14T13:17:17.576Z</time>
      </trkpt>
      <trkpt lat="51.179582" lon="6.284105">
        <ele>68.589016</ele>
        <time>2019-08-14T13:17:25.091Z</time>
      </trkpt>
      <trkpt lat="51.179693" lon="6.283937">
        <ele>68.265931</ele>
        <time>2019-08-14T13:17:26.056Z</time>
      </trkpt>
      <trkpt lat="51.180558" lon="6.282432">
        <ele>66.044805</ele>
        <time>2019-08-14T13:17:34.855Z</time>
      </trkpt>
      <trkpt lat="51.180741" lon="6.281322">
        <ele>65.044736</ele>
        <time>2019-08-14T13:17:40.043Z</time>
      </trkpt>
      <trkpt lat="51.180807" lon="6.279366">
        <ele>63.221563</ele>
        <time>2019-08-14T13:17:48.607Z</time>
      </trkpt>
      <trkpt lat="51.180808" lon="6.279009">
        <ele>62.878583</ele>
        <time>2019-08-14T13:17:50.123Z</time>
      </trkpt>
      <trkpt lat="51.180775" lon="6.278356">
        <ele>62.249197</ele>
        <time>2019-08-14T13:17:52.977Z</time>
      </trkpt>
      <trkpt lat="51.180713" lon="6.277007">
        <ele>61.126660</ele>
        <time>2019-08-14T13:17:58.789Z</time>
      </trkpt>
      <trkpt lat="51.180691" lon="6.276285">
        <ele>60.592606</ele>
        <time>2019-08-14T13:18:01.900Z</time>
      </trkpt>
      <trkpt lat="51.180762" lon="6.275719">
        <ele>60.166146</ele>
        <time>2019-08-14T13:18:04.567Z</time>
      </trkpt>
      <trkpt lat="51.181029" lon="6.275005">
        <ele>59.581733</ele>
        <time>2019-08-14T13:18:08.591Z</time>
      </trkpt>
      <trkpt lat="51.181166" lon="6.274792">
        <ele>59.508930</ele>
        <time>2019-08-14T13:18:10.109Z</time>
      </trkpt>
      <trkpt lat="51.181390" lon="6.274588">
        <ele>59.410771</ele>
        <time>2019-08-14T13:18:12.191Z</time>
      </trkpt>
      <trkpt lat="51.181983" lon="6.274187">
        <ele>59.165660</ele>
        <time>2019-08-14T13:18:17.439Z</time>
      </trkpt>
      <trkpt lat="51.182432" lon="6.273563">
        <ele>58.939041</ele>
        <time>2019-08-14T13:18:22.410Z</time>
      </trkpt>
      <trkpt lat="51.183021" lon="6.272167">
        <ele>58.901942</ele>
        <time>2019-08-14T13:18:31.597Z</time>
      </trkpt>
      <trkpt lat="51.183524" lon="6.270544">
        <ele>58.950693</ele>
        <time>2019-08-14T13:18:41.998Z</time>
      </trkpt>
      <trkpt lat="51.183675" lon="6.269577">
        <ele>59.061782</ele>
        <time>2019-08-14T13:18:48.087Z</time>
      </trkpt>
      <trkpt lat="51.183813" lon="6.269042">
        <ele>59.126272</ele>
        <time>2019-08-14T13:18:51.744Z</time>
      </trkpt>
      <trkpt lat="51.184163" lon="6.268141">
        <ele>59.010199</ele>
        <time>2019-08-14T13:18:58.027Z</time>
      </trkpt>
      <trkpt lat="51.184432" lon="6.267742">
        <ele>58.574454</ele>
        <time>2019-08-14T13:19:00.854Z</time>
      </trkpt>
      <trkpt lat="51.184790" lon="6.267374">
        <ele>58.069221</ele>
        <time>2019-08-14T13:19:03.794Z</time>
      </trkpt>
      <trkpt lat="51.185373" lon="6.266953">
        <ele>57.310035</ele>
        <time>2019-08-14T13:19:08.095Z</time>
      </trkpt>
      <trkpt lat="51.185647" lon="6.266705">
        <ele>56.919756</ele>
        <time>2019-08-14T13:19:10.225Z</time>
      </trkpt>
      <trkpt lat="51.186181" lon="6.266210">
        <ele>56.102727</ele>
        <time>2019-08-14T13:19:14.408Z</time>
      </trkpt>
      <trkpt lat="51.186442" lon="6.266087">
        <ele>55.742695</ele>
        <time>2019-08-14T13:19:16.275Z</time>
      </trkpt>
      <trkpt lat="51.186574" lon="6.266073">
        <ele>55.567683</ele>
        <time>2019-08-14T13:19:17.180Z</time>
      </trkpt>
      <trkpt lat="51.187122" lon="6.266117">
        <ele>54.841802</ele>
        <time>2019-08-14T13:19:21.100Z</time>
      </trkpt>
      <trkpt lat="51.187284" lon="6.266038">
        <ele>54.702301</ele>
        <time>2019-08-14T13:19:22.408Z</time>
      </trkpt>
      <trkpt lat="51.187471" lon="6.265718">
        <ele>54.709626</ele>
        <time>2019-08-14T13:19:24.793Z</time>
      </trkpt>
      <trkpt lat="51.187633" lon="6.265266">
        <ele>54.718345</ele>
        <time>2019-08-14T13:19:28.072Z</time>
      </trkpt>
      <trkpt lat="51.188031" lon="6.262957">
        <ele>54.939837</ele>
        <time>2019-08-14T13:19:42.223Z</time>
      </trkpt>
      <trkpt lat="51.188060" lon="6.262529">
        <ele>55.080936</ele>
        <time>2019-08-14T13:19:44.869Z</time>
      </trkpt>
      <trkpt lat="51.188037" lon="6.262363">
        <ele>55.136657</ele>
        <time>2019-08-14T13:19:45.868Z</time>
      </trkpt>
      <trkpt lat="51.188080" lon="6.261470">
        <ele>55.430210</ele>
        <time>2019-08-14T13:19:51.716Z</time>
      </trkpt>
      <trkpt lat="51.188202" lon="6.260637">
        <ele>55.698922</ele>
        <time>2019-08-14T13:19:57.663Z</time>
      </trkpt>
      <trkpt lat="51.188298" lon="6.260005">
        <ele>55.795487</ele>
        <time>2019-08-14T13:20:01.903Z</time>
      </trkpt>
      <trkpt lat="51.188361" lon="6.259776">
        <ele>55.832624</ele>
        <time>2019-08-14T13:20:03.493Z</time>
      </trkpt>
      <trkpt lat="51.188589" lon="6.259344">
        <ele>55.916488</ele>
        <time>2019-08-14T13:20:06.918Z</time>
      </trkpt>
      <trkpt lat="51.188940" lon="6.258867">
        <ele>56.025724</ele>
        <time>2019-08-14T13:20:11.059Z</time>
      </trkpt>
      <trkpt lat="51.189231" lon="6.258536">
        <ele>56.110395</ele>
        <time>2019-08-14T13:20:14.159Z</time>
      </trkpt>
      <trkpt lat="51.189576" lon="6.258153">
        <ele>55.868680</ele>
        <time>2019-08-14T13:20:17.608Z</time>
      </trkpt>
      <trkpt lat="51.189944" lon="6.257697">
        <ele>55.580702</ele>
        <time>2019-08-14T13:20:21.209Z</time>
      </trkpt>
      <trkpt lat="51.190323" lon="6.257237">
        <ele>55.286390</ele>
        <time>2019-08-14T13:20:24.793Z</time>
      </trkpt>
      <trkpt lat="51.191074" lon="6.256174">
        <ele>54.768375</ele>
        <time>2019-08-14T13:20:32.311Z</time>
      </trkpt>
      <trkpt lat="51.191415" lon="6.255620">
        <ele>54.558820</ele>
        <time>2019-08-14T13:20:36.264Z</time>
      </trkpt>
      <trkpt lat="51.191613" lon="6.255236">
        <ele>54.424626</ele>
        <time>2019-08-14T13:20:38.864Z</time>
      </trkpt>
      <trkpt lat="51.191782" lon="6.254750">
        <ele>54.274635</ele>
        <time>2019-08-14T13:20:41.789Z</time>
      </trkpt>
      <trkpt lat="51.192005" lon="6.253936">
        <ele>54.513915</ele>
        <time>2019-08-14T13:20:46.923Z</time>
      </trkpt>
      <trkpt lat="51.192204" lon="6.253006">
        <ele>54.902391</ele>
        <time>2019-08-14T13:20:53.300Z</time>
      </trkpt>
      <trkpt lat="51.192220" lon="6.252517">
        <ele>55.095960</ele>
        <time>2019-08-14T13:20:56.806Z</time>
      </trkpt>
      <trkpt lat="51.192244" lon="6.251806">
        <ele>55.376356</ele>
        <time>2019-08-14T13:21:01.979Z</time>
      </trkpt>
      <trkpt lat="51.192020" lon="6.250431">
        <ele>55.893801</ele>
        <time>2019-08-14T13:21:12.226Z</time>
      </trkpt>
      <trkpt lat="51.191894" lon="6.248661">
        <ele>56.283067</ele>
        <time>2019-08-14T13:21:22.758Z</time>
      </trkpt>
      <trkpt lat="51.191889" lon="6.248191">
        <ele>56.121552</ele>
        <time>2019-08-14T13:21:25.057Z</time>
      </trkpt>
      <trkpt lat="51.192013" lon="6.247216">
        <ele>55.779716</ele>
        <time>2019-08-14T13:21:29.692Z</time>
      </trkpt>
      <trkpt lat="51.192307" lon="6.246055">
        <ele>55.400705</ele>
        <time>2019-08-14T13:21:35.815Z</time>
      </trkpt>
      <trkpt lat="51.192512" lon="6.245461">
        <ele>55.330178</ele>
        <time>2019-08-14T13:21:39.152Z</time>
      </trkpt>
      <trkpt lat="51.192744" lon="6.245129">
        <ele>55.278461</ele>
        <time>2019-08-14T13:21:41.691Z</time>
      </trkpt>
      <trkpt lat="51.193250" lon="6.244684">
        <ele>55.182579</ele>
        <time>2019-08-14T13:21:46.806Z</time>
      </trkpt>
      <trkpt lat="51.193504" lon="6.244428">
        <ele>55.132722</ele>
        <time>2019-08-14T13:21:49.602Z</time>
      </trkpt>
      <trkpt lat="51.193623" lon="6.244395">
        <ele>55.197975</ele>
        <time>2019-08-14T13:21:50.692Z</time>
      </trkpt>
      <trkpt lat="51.194249" lon="6.244078">
        <ele>55.878361</ele>
        <time>2019-08-14T13:21:57.821Z</time>
      </trkpt>
      <trkpt lat="51.195058" lon="6.243770">
        <ele>56.739980</ele>
        <time>2019-08-14T13:22:07.634Z</time>
      </trkpt>
      <trkpt lat="51.195430" lon="6.243565">
        <ele>57.198192</ele>
        <time>2019-08-14T13:22:12.764Z</time>
      </trkpt>
      <trkpt lat="51.196169" lon="6.243039">
        <ele>58.301211</ele>
        <time>2019-08-14T13:22:23.352Z</time>
      </trkpt>
      <trkpt lat="51.196561" lon="6.242848">
        <ele>58.859911</ele>
        <time>2019-08-14T13:22:28.541Z</time>
      </trkpt>
      <trkpt lat="51.197657" lon="6.242433">
        <ele>59.096179</ele>
        <time>2019-08-14T13:22:40.152Z</time>
      </trkpt>
      <trkpt lat="51.198216" lon="6.242265">
        <ele>58.817608</ele>
        <time>2019-08-14T13:22:44.461Z</time>
      </trkpt>
      <trkpt lat="51.198379" lon="6.242152">
        <ele>58.730575</ele>
        <time>2019-08-14T13:22:45.679Z</time>
      </trkpt>
      <trkpt lat="51.198806" lon="6.241663">
        <ele>58.360740</ele>
        <time>2019-08-14T13:22:49.224Z</time>
      </trkpt>
      <trkpt lat="51.199199" lon="6.241119">
        <ele>57.771016</ele>
        <time>2019-08-14T13:22:52.760Z</time>
      </trkpt>
      <trkpt lat="51.199540" lon="6.240515">
        <ele>57.193538</ele>
        <time>2019-08-14T13:22:56.244Z</time>
      </trkpt>
      <trkpt lat="51.200520" lon="6.238618">
        <ele>56.934062</ele>
        <time>2019-08-14T13:23:09.480Z</time>
      </trkpt>
      <trkpt lat="51.200558" lon="6.238544">
        <ele>56.960305</ele>
        <time>2019-08-14T13:23:10.494Z</time>
      </trkpt>
      <trkpt lat="51.201476" lon="6.236762">
        <ele>57.715621</ele>
        <time>2019-08-14T13:23:26.952Z</time>
      </trkpt>
      <trkpt lat="51.201394" lon="6.236057">
        <ele>57.996607</ele>
        <time>2019-08-14T13:23:31.453Z</time>
      </trkpt>
      <trkpt lat="51.201035" lon="6.235347">
        <ele>58.354125</ele>
        <time>2019-08-14T13:23:37.092Z</time>
      </trkpt>
      <trkpt lat="51.200850" lon="6.234891">
        <ele>58.210869</ele>
        <time>2019-08-14T13:23:40.322Z</time>
      </trkpt>
      <trkpt lat="51.200783" lon="6.234593">
        <ele>58.007474</ele>
        <time>2019-08-14T13:23:42.150Z</time>
      </trkpt>
      <trkpt lat="51.200992" lon="6.233943">
        <ele>57.538125</ele>
        <time>2019-08-14T13:23:45.858Z</time>
      </trkpt>
      <trkpt lat="51.201117" lon="6.233330">
        <ele>57.123989</ele>
        <time>2019-08-14T13:23:48.763Z</time>
      </trkpt>
      <trkpt lat="51.201145" lon="6.232357">
        <ele>56.324718</ele>
        <time>2019-08-14T13:23:52.766Z</time>
      </trkpt>
      <trkpt lat="51.201006" lon="6.232060">
        <ele>55.625954</ele>
        <time>2019-08-14T13:23:54.226Z</time>
      </trkpt>
      <trkpt lat="51.200142" lon="6.230752">
        <ele>52.043388</ele>
        <time>2019-08-14T13:24:01.381Z</time>
      </trkpt>
      <trkpt lat="51.199891" lon="6.230314">
        <ele>51.071635</ele>
        <time>2019-08-14T13:24:03.646Z</time>
      </trkpt>
      <trkpt lat="51.199293" lon="6.229881">
        <ele>50.246731</ele>
        <time>2019-08-14T13:24:07.922Z</time>
      </trkpt>
      <trkpt lat="51.199186" lon="6.229782">
        <ele>50.091363</ele>
        <time>2019-08-14T13:24:08.797Z</time>
      </trkpt>
      <trkpt lat="51.199157" lon="6.229754">
        <ele>50.048785</ele>
        <time>2019-08-14T13:24:09.038Z</time>
      </trkpt>
      <trkpt lat="51.198863" lon="6.229284">
        <ele>49.526036</ele>
        <time>2019-08-14T13:24:12.200Z</time>
      </trkpt>
      <trkpt lat="51.198728" lon="6.229139">
        <ele>49.321619</ele>
        <time>2019-08-14T13:24:13.537Z</time>
      </trkpt>
      <trkpt lat="51.198605" lon="6.229098">
        <ele>49.163773</ele>
        <time>2019-08-14T13:24:14.632Z</time>
      </trkpt>
      <trkpt lat="51.198487" lon="6.229093">
        <ele>49.015491</ele>
        <time>2019-08-14T13:24:15.752Z</time>
      </trkpt>
      <trkpt lat="51.198113" lon="6.229230">
        <ele>49.151525</ele>
        <time>2019-08-14T13:24:19.610Z</time>
      </trkpt>
      <trkpt lat="51.197864" lon="6.229210">
        <ele>49.342155</ele>
        <time>2019-08-14T13:24:22.441Z</time>
      </trkpt>
      <trkpt lat="51.197624" lon="6.229062">
        <ele>49.538886</ele>
        <time>2019-08-14T13:24:25.559Z</time>
      </trkpt>
      <trkpt lat="51.197352" lon="6.228763">
        <ele>49.791428</ele>
        <time>2019-08-14T13:24:29.470Z</time>
      </trkpt>
      <trkpt lat="51.197059" lon="6.228196">
        <ele>50.143558</ele>
        <time>2019-08-14T13:24:34.462Z</time>
      </trkpt>
      <trkpt lat="51.196841" lon="6.227914">
        <ele>50.342666</ele>
        <time>2019-08-14T13:24:37.351Z</time>
      </trkpt>
      <trkpt lat="51.196340" lon="6.227260">
        <ele>50.720195</ele>
        <time>2019-08-14T13:24:43.827Z</time>
      </trkpt>
      <trkpt lat="51.195575" lon="6.226299">
        <ele>51.288057</ele>
        <time>2019-08-14T13:24:53.829Z</time>
      </trkpt>
      <trkpt lat="51.195035" lon="6.225598">
        <ele>51.826105</ele>
        <time>2019-08-14T13:25:01.307Z</time>
      </trkpt>
      <trkpt lat="51.194749" lon="6.225246">
        <ele>52.115775</ele>
        <time>2019-08-14T13:25:05.204Z</time>
      </trkpt>
      <trkpt lat="51.194022" lon="6.224354">
        <ele>52.916195</ele>
        <time>2019-08-14T13:25:14.964Z</time>
      </trkpt>
      <trkpt lat="51.193870" lon="6.224127">
        <ele>53.245608</ele>
        <time>2019-08-14T13:25:17.521Z</time>
      </trkpt>
      <trkpt lat="51.193946" lon="6.224013">
        <ele>53.410654</ele>
        <time>2019-08-14T13:25:18.668Z</time>
      </trkpt>
      <trkpt lat="51.194200" lon="6.223716">
        <ele>53.908913</ele>
        <time>2019-08-14T13:25:22.563Z</time>
      </trkpt>
      <trkpt lat="51.194543" lon="6.223352">
        <ele>54.560708</ele>
        <time>2019-08-14T13:25:27.700Z</time>
      </trkpt>
      <trkpt lat="51.194910" lon="6.222961">
        <ele>55.258948</ele>
        <time>2019-08-14T13:25:33.638Z</time>
      </trkpt>
      <trkpt lat="51.195090" lon="6.222760">
        <ele>55.606574</ele>
        <time>2019-08-14T13:25:36.726Z</time>
      </trkpt>
      <trkpt lat="51.195372" lon="6.222463">
        <ele>56.545115</ele>
        <time>2019-08-14T13:25:41.376Z</time>
      </trkpt>
      <trkpt lat="51.194919" lon="6.221521">
        <ele>58.653724</ele>
        <time>2019-08-14T13:25:55.768Z</time>
      </trkpt>
      <trkpt lat="51.194899" lon="6.221377">
        <ele>58.915650</ele>
        <time>2019-08-14T13:25:57.564Z</time>
      </trkpt>
      <trkpt lat="51.194729" lon="6.219569">
        <ele>62.009515</ele>
        <time>2019-08-14T13:26:20.324Z</time>
      </trkpt>
      <trkpt lat="51.194709" lon="6.219457">
        <ele>62.194304</ele>
        <time>2019-08-14T13:26:22.055Z</time>
      </trkpt>
      <trkpt lat="51.194973" lon="6.219097">
        <ele>63.073575</ele>
        <time>2019-08-14T13:26:28.474Z</time>
      </trkpt>
      <trkpt lat="51.195029" lon="6.219019">
        <ele>63.261784</ele>
        <time>2019-08-14T13:26:29.839Z</time>
      </trkpt>
      <trkpt lat="51.195207" lon="6.218773">
        <ele>63.858012</ele>
        <time>2019-08-14T13:26:33.810Z</time>
      </trkpt>
      <trkpt lat="51.195418" lon="6.218343">
        <ele>64.724581</ele>
        <time>2019-08-14T13:26:39.691Z</time>
      </trkpt>
      <trkpt lat="51.195207" lon="6.218091">
        <ele>65.318704</ele>
        <time>2019-08-14T13:26:43.357Z</time>
      </trkpt>
      <trkpt lat="51.195064" lon="6.217727">
        <ele>65.548073</ele>
        <time>2019-08-14T13:26:46.884Z</time>
      </trkpt>
      <trkpt lat="51.194703" lon="6.216614">
        <ele>66.217176</ele>
        <time>2019-08-14T13:26:55.445Z</time>
      </trkpt>
      <trkpt lat="51.194224" lon="6.215040">
        <ele>66.712704</ele>
        <time>2019-08-14T13:27:06.098Z</time>
      </trkpt>
      <trkpt lat="51.194164" lon="6.214855">
        <ele>66.679331</ele>
        <time>2019-08-14T13:27:07.239Z</time>
      </trkpt>
      <trkpt lat="51.194126" lon="6.214764">
        <ele>66.661812</ele>
        <time>2019-08-14T13:27:07.826Z</time>
      </trkpt>
      <trkpt lat="51.194149" lon="6.214738">
        <ele>66.654606</ele>
        <time>2019-08-14T13:27:08.045Z</time>
      </trkpt>
      <trkpt lat="51.194169" lon="6.214656">
        <ele>66.640509</ele>
        <time>2019-08-14T13:27:08.492Z</time>
      </trkpt>
      <trkpt lat="51.194163" lon="6.214611">
        <ele>66.633139</ele>
        <time>2019-08-14T13:27:08.728Z</time>
      </trkpt>
      <trkpt lat="51.194151" lon="6.214577">
        <ele>66.626887</ele>
        <time>2019-08-14T13:27:08.960Z</time>
      </trkpt>
      <trkpt lat="51.194084" lon="6.214535">
        <ele>66.608484</ele>
        <time>2019-08-14T13:27:09.545Z</time>
      </trkpt>
      <trkpt lat="51.194060" lon="6.214545">
        <ele>66.602143</ele>
        <time>2019-08-14T13:27:09.780Z</time>
      </trkpt>
      <trkpt lat="51.194040" lon="6.214456">
        <ele>66.586995</ele>
        <time>2019-08-14T13:27:10.266Z</time>
      </trkpt>
      <trkpt lat="51.193958" lon="6.214198">
        <ele>66.540649</ele>
        <time>2019-08-14T13:27:11.705Z</time>
      </trkpt>
      <trkpt lat="51.193882" lon="6.213890">
        <ele>66.487617</ele>
        <time>2019-08-14T13:27:13.405Z</time>
      </trkpt>
      <trkpt lat="51.193765" lon="6.213458">
        <ele>66.412220</ele>
        <time>2019-08-14T13:27:15.741Z</time>
      </trkpt>
      <trkpt lat="51.193709" lon="6.213253">
        <ele>66.376392</ele>
        <time>2019-08-14T13:27:16.816Z</time>
      </trkpt>
      <trkpt lat="51.193640" lon="6.213026">
        <ele>66.278833</ele>
        <time>2019-08-14T13:27:18.037Z</time>
      </trkpt>
      <trkpt lat="51.193624" lon="6.212810">
        <ele>66.134392</ele>
        <time>2019-08-14T13:27:19.120Z</time>
      </trkpt>
      <trkpt lat="51.193630" lon="6.212656">
        <ele>66.031925</ele>
        <time>2019-08-14T13:27:19.830Z</time>
      </trkpt>
      <trkpt lat="51.193651" lon="6.212479">
        <ele>65.912294</ele>
        <time>2019-08-14T13:27:20.697Z</time>
      </trkpt>
      <trkpt lat="51.194589" lon="6.209654">
        <ele>64.198489</ele>
        <time>2019-08-14T13:27:35.011Z</time>
      </trkpt>
      <trkpt lat="51.194696" lon="6.209229">
        <ele>64.083242</ele>
        <time>2019-08-14T13:27:37.174Z</time>
      </trkpt>
      <trkpt lat="51.194779" lon="6.208716">
        <ele>63.949928</ele>
        <time>2019-08-14T13:27:40.082Z</time>
      </trkpt>
      <trkpt lat="51.194824" lon="6.208145">
        <ele>63.805121</ele>
        <time>2019-08-14T13:27:43.555Z</time>
      </trkpt>
      <trkpt lat="51.194800" lon="6.207606">
        <ele>63.821318</ele>
        <time>2019-08-14T13:27:47.003Z</time>
      </trkpt>
      <trkpt lat="51.194739" lon="6.207006">
        <ele>64.077907</ele>
        <time>2019-08-14T13:27:51.078Z</time>
      </trkpt>
      <trkpt lat="51.194666" lon="6.206711">
        <ele>64.211792</ele>
        <time>2019-08-14T13:27:53.638Z</time>
      </trkpt>
      <trkpt lat="51.194558" lon="6.206367">
        <ele>64.374209</ele>
        <time>2019-08-14T13:27:56.629Z</time>
      </trkpt>
      <trkpt lat="51.194288" lon="6.205554">
        <ele>64.762615</ele>
        <time>2019-08-14T13:28:02.989Z</time>
      </trkpt>
      <trkpt lat="51.194109" lon="6.205034">
        <ele>64.828248</ele>
        <time>2019-08-14T13:28:06.426Z</time>
      </trkpt>
      <trkpt lat="51.194037" lon="6.204646">
        <ele>64.580980</ele>
        <time>2019-08-14T13:28:08.501Z</time>
      </trkpt>
      <trkpt lat="51.194010" lon="6.204498">
        <ele>64.486789</ele>
        <time>2019-08-14T13:28:09.247Z</time>
      </trkpt>
      <trkpt lat="51.193997" lon="6.204373">
        <ele>64.409361</ele>
        <time>2019-08-14T13:28:09.857Z</time>
      </trkpt>
      <trkpt lat="51.193979" lon="6.203847">
        <ele>64.087463</ele>
        <time>2019-08-14T13:28:12.178Z</time>
      </trkpt>
      <trkpt lat="51.194010" lon="6.203150">
        <ele>63.660481</ele>
        <time>2019-08-14T13:28:15.231Z</time>
      </trkpt>
      <trkpt lat="51.194059" lon="6.202448">
        <ele>63.228862</ele>
        <time>2019-08-14T13:28:18.355Z</time>
      </trkpt>
      <trkpt lat="51.194116" lon="6.202076">
        <ele>63.084047</ele>
        <time>2019-08-14T13:28:20.024Z</time>
      </trkpt>
      <trkpt lat="51.194284" lon="6.201451">
        <ele>62.864714</ele>
        <time>2019-08-14T13:28:22.925Z</time>
      </trkpt>
      <trkpt lat="51.194152" lon="6.201433">
        <ele>62.796534</ele>
        <time>2019-08-14T13:28:24.293Z</time>
      </trkpt>
      <trkpt lat="51.193857" lon="6.201354">
        <ele>62.642592</ele>
        <time>2019-08-14T13:28:27.500Z</time>
      </trkpt>
      <trkpt lat="51.193668" lon="6.201317">
        <ele>62.544596</ele>
        <time>2019-08-14T13:28:29.752Z</time>
      </trkpt>
      <trkpt lat="51.193640" lon="6.201314">
        <ele>62.530153</ele>
        <time>2019-08-14T13:28:30.079Z</time>
      </trkpt>
      <trkpt lat="51.193372" lon="6.201292">
        <ele>62.392047</ele>
        <time>2019-08-14T13:28:33.479Z</time>
      </trkpt>
      <trkpt lat="51.193212" lon="6.201233">
        <ele>62.307535</ele>
        <time>2019-08-14T13:28:35.715Z</time>
      </trkpt>
      <trkpt lat="51.193108" lon="6.201161">
        <ele>62.280439</ele>
        <time>2019-08-14T13:28:37.359Z</time>
      </trkpt>
      <trkpt lat="51.193099" lon="6.201126">
        <ele>62.311083</ele>
        <time>2019-08-14T13:28:37.694Z</time>
      </trkpt>
      <trkpt lat="51.193081" lon="6.201102">
        <ele>62.341401</ele>
        <time>2019-08-14T13:28:38.034Z</time>
      </trkpt>
      <trkpt lat="51.193059" lon="6.201094">
        <ele>62.370566</ele>
        <time>2019-08-14T13:28:38.377Z</time>
      </trkpt>
      <trkpt lat="51.193054" lon="6.200930">
        <ele>62.503565</ele>
        <time>2019-08-14T13:28:39.926Z</time>
      </trkpt>
      <trkpt lat="51.192927" lon="6.200265">
        <ele>63.066680</ele>
        <time>2019-08-14T13:28:46.554Z</time>
      </trkpt>
      <trkpt lat="51.192863" lon="6.200079">
        <ele>63.238559</ele>
        <time>2019-08-14T13:28:48.552Z</time>
      </trkpt>
      <trkpt lat="51.192787" lon="6.199903">
        <ele>63.411687</ele>
        <time>2019-08-14T13:28:50.596Z</time>
      </trkpt>
      <trkpt lat="51.192625" lon="6.199592">
        <ele>63.739261</ele>
        <time>2019-08-14T13:28:54.365Z</time>
      </trkpt>
      <trkpt lat="51.192307" lon="6.199017">
        <ele>64.360446</ele>
        <time>2019-08-14T13:29:01.967Z</time>
      </trkpt>
      <trkpt lat="51.192272" lon="6.198890">
        <ele>64.472827</ele>
        <time>2019-08-14T13:29:03.398Z</time>
      </trkpt>
      <trkpt lat="51.191902" lon="6.198152">
        <ele>65.492397</ele>
        <time>2019-08-14T13:29:13.186Z</time>
      </trkpt>
      <trkpt lat="51.191765" lon="6.198002">
        <ele>65.790366</ele>
        <time>2019-08-14T13:29:16.060Z</time>
      </trkpt>
      <trkpt lat="51.191526" lon="6.197815">
        <ele>66.267737</ele>
        <time>2019-08-14T13:29:20.483Z</time>
      </trkpt>
      <trkpt lat="51.191573" lon="6.197661">
        <ele>66.460254</ele>
        <time>2019-08-14T13:29:22.402Z</time>
      </trkpt>
      <trkpt lat="51.191718" lon="6.197301">
        <ele>66.941224</ele>
        <time>2019-08-14T13:29:26.797Z</time>
      </trkpt>
      <trkpt lat="51.191612" lon="6.196549">
        <ele>67.807533</ele>
        <time>2019-08-14T13:29:34.789Z</time>
      </trkpt>
      <trkpt lat="51.191463" lon="6.195853">
        <ele>68.363918</ele>
        <time>2019-08-14T13:29:42.169Z</time>
      </trkpt>
      <trkpt lat="51.191248" lon="6.194480">
        <ele>69.433921</ele>
        <time>2019-08-14T13:29:55.567Z</time>
      </trkpt>
      <trkpt lat="51.191103" lon="6.193562">
        <ele>70.046717</ele>
        <time>2019-08-14T13:30:03.859Z</time>
      </trkpt>
      <trkpt lat="51.190682" lon="6.190847">
        <ele>70.912151</ele>
        <time>2019-08-14T13:30:20.914Z</time>
      </trkpt>
      <trkpt lat="51.190055" lon="6.186838">
        <ele>73.309970</ele>
        <time>2019-08-14T13:30:49.002Z</time>
      </trkpt>
      <trkpt lat="51.189777" lon="6.185237">
        <ele>74.567904</ele>
        <time>2019-08-14T13:31:03.767Z</time>
      </trkpt>
      <trkpt lat="51.189534" lon="6.183796">
        <ele>74.786118</ele>
        <time>2019-08-14T13:31:13.352Z</time>
      </trkpt>
      <trkpt lat="51.189334" lon="6.182609">
        <ele>74.920597</ele>
        <time>2019-08-14T13:31:19.326Z</time>
      </trkpt>
      <trkpt lat="51.189262" lon="6.182303">
        <ele>74.716493</ele>
        <time>2019-08-14T13:31:20.832Z</time>
      </trkpt>
      <trkpt lat="51.189151" lon="6.182062">
        <ele>74.529734</ele>
        <time>2019-08-14T13:31:22.127Z</time>
      </trkpt>
      <trkpt lat="51.188621" lon="6.181193">
        <ele>73.772557</ele>
        <time>2019-08-14T13:31:27.218Z</time>
      </trkpt>
      <trkpt lat="51.188024" lon="6.180230">
        <ele>73.200773</ele>
        <time>2019-08-14T13:31:36.983Z</time>
      </trkpt>
      <trkpt lat="51.187623" lon="6.179571">
        <ele>73.286271</ele>
        <time>2019-08-14T13:31:44.533Z</time>
      </trkpt>
      <trkpt lat="51.187242" lon="6.178934">
        <ele>73.368234</ele>
        <time>2019-08-14T13:31:52.166Z</time>
      </trkpt>
      <trkpt lat="51.188510" lon="6.176482">
        <ele>72.893967</ele>
        <time>2019-08-14T13:32:15.211Z</time>
      </trkpt>
      <trkpt lat="51.189221" lon="6.175084">
        <ele>72.227800</ele>
        <time>2019-08-14T13:32:27.272Z</time>
      </trkpt>
      <trkpt lat="51.189305" lon="6.174922">
        <ele>72.141361</ele>
        <time>2019-08-14T13:32:28.260Z</time>
      </trkpt>
      <trkpt lat="51.190008" lon="6.173568">
        <ele>71.622208</ele>
        <time>2019-08-14T13:32:36.963Z</time>
      </trkpt>
      <trkpt lat="51.190030" lon="6.173406">
        <ele>71.619064</ele>
        <time>2019-08-14T13:32:37.788Z</time>
      </trkpt>
      <trkpt lat="51.189426" lon="6.171206">
        <ele>71.647447</ele>
        <time>2019-08-14T13:32:51.440Z</time>
      </trkpt>
      <trkpt lat="51.187891" lon="6.165620">
        <ele>73.622993</ele>
        <time>2019-08-14T13:33:31.076Z</time>
      </trkpt>
      <trkpt lat="51.184864" lon="6.154602">
        <ele>75.184968</ele>
        <time>2019-08-14T13:34:41.524Z</time>
      </trkpt>
      <trkpt lat="51.184838" lon="6.154508">
        <ele>75.203806</ele>
        <time>2019-08-14T13:34:42.153Z</time>
      </trkpt>
      <trkpt lat="51.183623" lon="6.150047">
        <ele>76.263593</ele>
        <time>2019-08-14T13:35:12.226Z</time>
      </trkpt>
      <trkpt lat="51.183150" lon="6.148282">
        <ele>76.639739</ele>
        <time>2019-08-14T13:35:23.753Z</time>
      </trkpt>
      <trkpt lat="51.183120" lon="6.148170">
        <ele>76.663606</ele>
        <time>2019-08-14T13:35:24.506Z</time>
      </trkpt>
      <trkpt lat="51.182760" lon="6.147100">
        <ele>76.947454</ele>
        <time>2019-08-14T13:35:31.801Z</time>
      </trkpt>
      <trkpt lat="51.182280" lon="6.146410">
        <ele>77.213145</ele>
        <time>2019-08-14T13:35:38.164Z</time>
      </trkpt>
      <trkpt lat="51.179031" lon="6.144325">
        <ele>78.078195</ele>
        <time>2019-08-14T13:36:14.133Z</time>
      </trkpt>
      <trkpt lat="51.178758" lon="6.144160">
        <ele>77.951374</ele>
        <time>2019-08-14T13:36:16.280Z</time>
      </trkpt>
      <trkpt lat="51.178222" lon="6.143864">
        <ele>77.525609</ele>
        <time>2019-08-14T13:36:20.108Z</time>
      </trkpt>
      <trkpt lat="51.178203" lon="6.143852">
        <ele>77.468957</ele>
        <time>2019-08-14T13:36:20.237Z</time>
      </trkpt>
      <trkpt lat="51.177314" lon="6.143287">
        <ele>74.815943</ele>
        <time>2019-08-14T13:36:26.192Z</time>
      </trkpt>
      <trkpt lat="51.177155" lon="6.143137">
        <ele>74.303821</ele>
        <time>2019-08-14T13:36:27.299Z</time>
      </trkpt>
      <trkpt lat="51.176461" lon="6.142082">
        <ele>72.176932</ele>
        <time>2019-08-14T13:36:33.069Z</time>
      </trkpt>
      <trkpt lat="51.173929" lon="6.138234">
        <ele>69.773151</ele>
        <time>2019-08-14T13:36:59.881Z</time>
      </trkpt>
      <trkpt lat="51.173810" lon="6.138074">
        <ele>70.105800</ele>
        <time>2019-08-14T13:37:01.971Z</time>
      </trkpt>
      <trkpt lat="51.173756" lon="6.138008">
        <ele>70.251203</ele>
        <time>2019-08-14T13:37:02.957Z</time>
      </trkpt>
      <trkpt lat="51.173660" lon="6.137907">
        <ele>70.496999</ele>
        <time>2019-08-14T13:37:04.709Z</time>
      </trkpt>
      <trkpt lat="51.173173" lon="6.137484">
        <ele>71.682193</ele>
        <time>2019-08-14T13:37:13.338Z</time>
      </trkpt>
      <trkpt lat="51.173102" lon="6.137427">
        <ele>71.852080</ele>
        <time>2019-08-14T13:37:14.766Z</time>
      </trkpt>
      <trkpt lat="51.172743" lon="6.137148">
        <ele>72.705607</ele>
        <time>2019-08-14T13:37:21.572Z</time>
      </trkpt>
      <trkpt lat="51.172001" lon="6.136540">
        <ele>74.797327</ele>
        <time>2019-08-14T13:37:35.450Z</time>
      </trkpt>
      <trkpt lat="51.171576" lon="6.136188">
        <ele>76.030169</ele>
        <time>2019-08-14T13:37:42.934Z</time>
      </trkpt>
      <trkpt lat="51.170680" lon="6.135450">
        <ele>78.010690</ele>
        <time>2019-08-14T13:37:56.186Z</time>
      </trkpt>
      <trkpt lat="51.170290" lon="6.134545">
        <ele>78.710672</ele>
        <time>2019-08-14T13:38:03.763Z</time>
      </trkpt>
      <trkpt lat="51.170236" lon="6.134420">
        <ele>78.807432</ele>
        <time>2019-08-14T13:38:04.809Z</time>
      </trkpt>
      <trkpt lat="51.170180" lon="6.133960">
        <ele>79.106125</ele>
        <time>2019-08-14T13:38:07.907Z</time>
      </trkpt>
      <trkpt lat="51.170110" lon="6.132420">
        <ele>79.500255</ele>
        <time>2019-08-14T13:38:17.811Z</time>
      </trkpt>
      <trkpt lat="51.169770" lon="6.130770">
        <ele>79.606682</ele>
        <time>2019-08-14T13:38:27.611Z</time>
      </trkpt>
      <trkpt lat="51.168961" lon="6.127462">
        <ele>77.781248</ele>
        <time>2019-08-14T13:38:44.720Z</time>
      </trkpt>
      <trkpt lat="51.168931" lon="6.127178">
        <ele>77.467335</ele>
        <time>2019-08-14T13:38:45.998Z</time>
      </trkpt>
      <trkpt lat="51.168900" lon="6.126127">
        <ele>76.320511</ele>
        <time>2019-08-14T13:38:50.477Z</time>
      </trkpt>
      <trkpt lat="51.168880" lon="6.125258">
        <ele>75.372689</ele>
        <time>2019-08-14T13:38:53.988Z</time>
      </trkpt>
      <trkpt lat="51.168833" lon="6.124571">
        <ele>73.948285</ele>
        <time>2019-08-14T13:38:56.693Z</time>
      </trkpt>
      <trkpt lat="51.168486" lon="6.121781">
        <ele>67.619566</ele>
        <time>2019-08-14T13:39:07.263Z</time>
      </trkpt>
      <trkpt lat="51.168237" lon="6.119845">
        <ele>62.999142</ele>
        <time>2019-08-14T13:39:14.558Z</time>
      </trkpt>
      <trkpt lat="51.168140" lon="6.119083">
        <ele>61.719266</ele>
        <time>2019-08-14T13:39:17.535Z</time>
      </trkpt>
      <trkpt lat="51.167949" lon="6.117603">
        <ele>59.923317</ele>
        <time>2019-08-14T13:39:23.727Z</time>
      </trkpt>
      <trkpt lat="51.167491" lon="6.113939">
        <ele>57.909626</ele>
        <time>2019-08-14T13:39:42.444Z</time>
      </trkpt>
      <trkpt lat="51.167110" lon="6.110960">
        <ele>57.182075</ele>
        <time>2019-08-14T13:39:57.735Z</time>
      </trkpt>
      <trkpt lat="51.167003" lon="6.110242">
        <ele>57.341231</ele>
        <time>2019-08-14T13:40:01.826Z</time>
      </trkpt>
      <trkpt lat="51.166460" lon="6.106210">
        <ele>58.235668</ele>
        <time>2019-08-14T13:40:28.726Z</time>
      </trkpt>
      <trkpt lat="51.166434" lon="6.106136">
        <ele>58.254162</ele>
        <time>2019-08-14T13:40:29.375Z</time>
      </trkpt>
      <trkpt lat="51.166400" lon="6.106090">
        <ele>58.269665</ele>
        <time>2019-08-14T13:40:29.723Z</time>
      </trkpt>
      <trkpt lat="51.164522" lon="6.104099">
        <ele>57.600969</ele>
        <time>2019-08-14T13:40:47.915Z</time>
      </trkpt>
      <trkpt lat="51.164032" lon="6.103549">
        <ele>57.070268</ele>
        <time>2019-08-14T13:40:52.536Z</time>
      </trkpt>
      <trkpt lat="51.163849" lon="6.103358">
        <ele>56.876562</ele>
        <time>2019-08-14T13:40:54.251Z</time>
      </trkpt>
      <trkpt lat="51.163400" lon="6.103110">
        <ele>56.455720</ele>
        <time>2019-08-14T13:40:58.014Z</time>
      </trkpt>
      <trkpt lat="51.160900" lon="6.102230">
        <ele>51.155511</ele>
        <time>2019-08-14T13:41:15.260Z</time>
      </trkpt>
      <trkpt lat="51.160805" lon="6.102172">
        <ele>50.701550</ele>
        <time>2019-08-14T13:41:15.828Z</time>
      </trkpt>
      <trkpt lat="51.160708" lon="6.102078">
        <ele>50.195005</ele>
        <time>2019-08-14T13:41:16.482Z</time>
      </trkpt>
      <trkpt lat="51.160684" lon="6.102018">
        <ele>49.995836</ele>
        <time>2019-08-14T13:41:16.843Z</time>
      </trkpt>
      <trkpt lat="51.160537" lon="6.101104">
        <ele>47.355066</ele>
        <time>2019-08-14T13:41:20.165Z</time>
      </trkpt>
      <trkpt lat="51.160531" lon="6.101063">
        <ele>47.237237</ele>
        <time>2019-08-14T13:41:20.312Z</time>
      </trkpt>
      <trkpt lat="51.160518" lon="6.100946">
        <ele>46.904692</ele>
        <time>2019-08-14T13:41:20.744Z</time>
      </trkpt>
      <trkpt lat="51.160492" lon="6.100696">
        <ele>46.195465</ele>
        <time>2019-08-14T13:41:22.031Z</time>
      </trkpt>
      <trkpt lat="51.160459" lon="6.100611">
        <ele>45.915683</ele>
        <time>2019-08-14T13:41:22.513Z</time>
      </trkpt>
      <trkpt lat="51.160463" lon="6.100553">
        <ele>45.752380</ele>
        <time>2019-08-14T13:41:22.798Z</time>
      </trkpt>
      <trkpt lat="51.160317" lon="6.099365">
        <ele>43.089692</ele>
        <time>2019-08-14T13:41:28.882Z</time>
      </trkpt>
      <trkpt lat="51.160197" lon="6.098446">
        <ele>41.272602</ele>
        <time>2019-08-14T13:41:34.043Z</time>
      </trkpt>
      <trkpt lat="51.160179" lon="6.098310">
        <ele>41.003543</ele>
        <time>2019-08-14T13:41:34.813Z</time>
      </trkpt>
      <trkpt lat="51.160122" lon="6.097820">
        <ele>40.038852</ele>
        <time>2019-08-14T13:41:37.992Z</time>
      </trkpt>
      <trkpt lat="51.160063" lon="6.097313">
        <ele>39.146608</ele>
        <time>2019-08-14T13:41:41.467Z</time>
      </trkpt>
      <trkpt lat="51.160047" lon="6.097016">
        <ele>39.060564</ele>
        <time>2019-08-14T13:41:43.620Z</time>
      </trkpt>
      <trkpt lat="51.160112" lon="6.096233">
        <ele>38.832581</ele>
        <time>2019-08-14T13:41:49.610Z</time>
      </trkpt>
      <trkpt lat="51.160324" lon="6.094082">
        <ele>38.035187</ele>
        <time>2019-08-14T13:42:05.023Z</time>
      </trkpt>
      <trkpt lat="51.160357" lon="6.093699">
        <ele>37.782164</ele>
        <time>2019-08-14T13:42:07.633Z</time>
      </trkpt>
      <trkpt lat="51.160302" lon="6.093500">
        <ele>37.639834</ele>
        <time>2019-08-14T13:42:09.021Z</time>
      </trkpt>
      <trkpt lat="51.160432" lon="6.091890">
        <ele>36.577413</ele>
        <time>2019-08-14T13:42:19.341Z</time>
      </trkpt>
      <trkpt lat="51.160359" lon="6.091497">
        <ele>36.301967</ele>
        <time>2019-08-14T13:42:21.856Z</time>
      </trkpt>
      <trkpt lat="51.158900" lon="6.087308">
        <ele>33.378746</ele>
        <time>2019-08-14T13:42:53.087Z</time>
      </trkpt>
      <trkpt lat="51.156591" lon="6.084145">
        <ele>32.138199</ele>
        <time>2019-08-14T13:43:28.266Z</time>
      </trkpt>
      <trkpt lat="51.156193" lon="6.083450">
        <ele>31.918783</ele>
        <time>2019-08-14T13:43:34.648Z</time>
      </trkpt>
      <trkpt lat="51.155996" lon="6.083071">
        <ele>31.804020</ele>
        <time>2019-08-14T13:43:38.119Z</time>
      </trkpt>
      <trkpt lat="51.155485" lon="6.082371">
        <ele>31.900559</ele>
        <time>2019-08-14T13:43:46.199Z</time>
      </trkpt>
      <trkpt lat="51.155237" lon="6.082299">
        <ele>31.959721</ele>
        <time>2019-08-14T13:43:49.605Z</time>
      </trkpt>
      <trkpt lat="51.155094" lon="6.082218">
        <ele>31.995338</ele>
        <time>2019-08-14T13:43:51.529Z</time>
      </trkpt>
      <trkpt lat="51.155164" lon="6.081998">
        <ele>32.031651</ele>
        <time>2019-08-14T13:43:53.765Z</time>
      </trkpt>
      <trkpt lat="51.155200" lon="6.081884">
        <ele>32.050440</ele>
        <time>2019-08-14T13:43:54.906Z</time>
      </trkpt>
      <trkpt lat="51.155240" lon="6.081762">
        <ele>32.070704</ele>
        <time>2019-08-14T13:43:56.022Z</time>
      </trkpt>
      <trkpt lat="51.155255" lon="6.081588">
        <ele>32.096559</ele>
        <time>2019-08-14T13:43:57.618Z</time>
      </trkpt>
      <trkpt lat="51.155613" lon="6.080461">
        <ele>31.997382</ele>
        <time>2019-08-14T13:44:07.832Z</time>
      </trkpt>
      <trkpt lat="51.155719" lon="6.080232">
        <ele>31.912342</ele>
        <time>2019-08-14T13:44:10.058Z</time>
      </trkpt>
      <trkpt lat="51.155681" lon="6.080185">
        <ele>31.889431</ele>
        <time>2019-08-14T13:44:10.533Z</time>
      </trkpt>
      <trkpt lat="51.155772" lon="6.080018">
        <ele>31.823331</ele>
        <time>2019-08-14T13:44:11.769Z</time>
      </trkpt>
      <trkpt lat="51.155834" lon="6.079884">
        <ele>31.773577</ele>
        <time>2019-08-14T13:44:12.866Z</time>
      </trkpt>
      <trkpt lat="51.155771" lon="6.079792">
        <ele>31.732879</ele>
        <time>2019-08-14T13:44:13.821Z</time>
      </trkpt>
      <trkpt lat="51.155708" lon="6.079733">
        <ele>31.698072</ele>
        <time>2019-08-14T13:44:14.589Z</time>
      </trkpt>
      <trkpt lat="51.155636" lon="6.079661">
        <ele>31.657583</ele>
        <time>2019-08-14T13:44:15.485Z</time>
      </trkpt>
      <trkpt lat="51.155474" lon="6.079477">
        <ele>31.562828</ele>
        <time>2019-08-14T13:44:17.667Z</time>
      </trkpt>
      <trkpt lat="51.155420" lon="6.079303">
        <ele>31.504822</ele>
        <time>2019-08-14T13:44:18.820Z</time>
      </trkpt>
      <trkpt lat="51.155358" lon="6.079061">
        <ele>31.426714</ele>
        <time>2019-08-14T13:44:20.631Z</time>
      </trkpt>
      <trkpt lat="51.155294" lon="6.078627">
        <ele>31.176338</ele>
        <time>2019-08-14T13:44:23.371Z</time>
      </trkpt>
      <trkpt lat="51.155170" lon="6.078610">
        <ele>30.934523</ele>
        <time>2019-08-14T13:44:24.699Z</time>
      </trkpt>
      <trkpt lat="51.155143" lon="6.078596">
        <ele>30.879359</ele>
        <time>2019-08-14T13:44:24.953Z</time>
      </trkpt>
      <trkpt lat="51.155100" lon="6.078560">
        <ele>30.784993</ele>
        <time>2019-08-14T13:44:25.381Z</time>
      </trkpt>
      <trkpt lat="51.154935" lon="6.078324">
        <ele>30.354308</ele>
        <time>2019-08-14T13:44:27.553Z</time>
      </trkpt>
      <trkpt lat="51.154583" lon="6.078109">
        <ele>29.621919</ele>
        <time>2019-08-14T13:44:31.058Z</time>
      </trkpt>
      <trkpt lat="51.154090" lon="6.077860">
        <ele>28.617129</ele>
        <time>2019-08-14T13:44:35.799Z</time>
      </trkpt>
      <trkpt lat="51.153890" lon="6.077770">
        <ele>28.213356</ele>
        <time>2019-08-14T13:44:37.759Z</time>
      </trkpt>
      <trkpt lat="51.153494" lon="6.077685">
        <ele>27.593023</ele>
        <time>2019-08-14T13:44:41.571Z</time>
      </trkpt>
      <trkpt lat="51.153292" lon="6.077641">
        <ele>27.351451</ele>
        <time>2019-08-14T13:44:43.557Z</time>
      </trkpt>
      <trkpt lat="51.153240" lon="6.077630">
        <ele>27.289296</ele>
        <time>2019-08-14T13:44:44.097Z</time>
      </trkpt>
      <trkpt lat="51.153050" lon="6.077644">
        <ele>27.063926</ele>
        <time>2019-08-14T13:44:46.099Z</time>
      </trkpt>
      <trkpt lat="51.152970" lon="6.077650">
        <ele>26.969030</ele>
        <time>2019-08-14T13:44:46.879Z</time>
      </trkpt>
      <trkpt lat="51.152240" lon="6.077860">
        <ele>26.090090</ele>
        <time>2019-08-14T13:44:54.667Z</time>
      </trkpt>
      <trkpt lat="51.151470" lon="6.078070">
        <ele>25.481764</ele>
        <time>2019-08-14T13:45:02.930Z</time>
      </trkpt>
      <trkpt lat="51.151252" lon="6.078162">
        <ele>25.371212</ele>
        <time>2019-08-14T13:45:05.423Z</time>
      </trkpt>
      <trkpt lat="51.151238" lon="6.078167">
        <ele>25.364179</ele>
        <time>2019-08-14T13:45:05.576Z</time>
      </trkpt>
      <trkpt lat="51.151110" lon="6.078250">
        <ele>25.296436</ele>
        <time>2019-08-14T13:45:07.080Z</time>
      </trkpt>
      <trkpt lat="51.150010" lon="6.079110">
        <ele>24.883016</ele>
        <time>2019-08-14T13:45:21.264Z</time>
      </trkpt>
      <trkpt lat="51.149260" lon="6.076580">
        <ele>25.437711</ele>
        <time>2019-08-14T13:45:43.655Z</time>
      </trkpt>
      <trkpt lat="51.148710" lon="6.074710">
        <ele>26.668379</ele>
        <time>2019-08-14T13:46:02.630Z</time>
      </trkpt>
      <trkpt lat="51.148297" lon="6.073266">
        <ele>27.417971</ele>
        <time>2019-08-14T13:46:18.202Z</time>
      </trkpt>
      <trkpt lat="51.148258" lon="6.073115">
        <ele>27.487008</ele>
        <time>2019-08-14T13:46:19.666Z</time>
      </trkpt>
      <trkpt lat="51.148221" lon="6.072985">
        <ele>27.547360</ele>
        <time>2019-08-14T13:46:20.824Z</time>
      </trkpt>
      <trkpt lat="51.147970" lon="6.072100">
        <ele>27.957973</ele>
        <time>2019-08-14T13:46:28.630Z</time>
      </trkpt>
      <trkpt lat="51.147816" lon="6.071641">
        <ele>28.132125</ele>
        <time>2019-08-14T13:46:32.595Z</time>
      </trkpt>
      <trkpt lat="51.147776" lon="6.071548">
        <ele>28.097869</ele>
        <time>2019-08-14T13:46:33.437Z</time>
      </trkpt>
      <trkpt lat="51.147610" lon="6.071879">
        <ele>27.969128</ele>
        <time>2019-08-14T13:46:35.690Z</time>
      </trkpt>
      <trkpt lat="51.147487" lon="6.072222">
        <ele>27.849102</ele>
        <time>2019-08-14T13:46:37.714Z</time>
      </trkpt>
      <trkpt lat="51.147404" lon="6.072563">
        <ele>27.737983</ele>
        <time>2019-08-14T13:46:39.637Z</time>
      </trkpt>
      <trkpt lat="51.147256" lon="6.073793">
        <ele>27.357499</ele>
        <time>2019-08-14T13:46:45.610Z</time>
      </trkpt>
      <trkpt lat="51.147120" lon="6.075238">
        <ele>26.862182</ele>
        <time>2019-08-14T13:46:52.553Z</time>
      </trkpt>
      <trkpt lat="51.147013" lon="6.076424">
        <ele>26.447128</ele>
        <time>2019-08-14T13:46:58.727Z</time>
      </trkpt>
      <trkpt lat="51.146943" lon="6.076903">
        <ele>26.280196</ele>
        <time>2019-08-14T13:47:01.294Z</time>
      </trkpt>
      <trkpt lat="51.146895" lon="6.077160">
        <ele>26.218192</ele>
        <time>2019-08-14T13:47:02.579Z</time>
      </trkpt>
      <trkpt lat="51.146789" lon="6.077606">
        <ele>26.107909</ele>
        <time>2019-08-14T13:47:05.011Z</time>
      </trkpt>
      <trkpt lat="51.146428" lon="6.078520">
        <ele>25.858161</ele>
        <time>2019-08-14T13:47:10.488Z</time>
      </trkpt>
      <trkpt lat="51.146100" lon="6.079030">
        <ele>25.689269</ele>
        <time>2019-08-14T13:47:14.243Z</time>
      </trkpt>
      <trkpt lat="51.145428" lon="6.079847">
        <ele>25.492424</ele>
        <time>2019-08-14T13:47:21.504Z</time>
      </trkpt>
      <trkpt lat="51.143834" lon="6.081664">
        <ele>25.289060</ele>
        <time>2019-08-14T13:47:38.174Z</time>
      </trkpt>
      <trkpt lat="51.143141" lon="6.082448">
        <ele>25.308861</ele>
        <time>2019-08-14T13:47:46.017Z</time>
      </trkpt>
      <trkpt lat="51.142980" lon="6.082618">
        <ele>25.342475</ele>
        <time>2019-08-14T13:47:47.907Z</time>
      </trkpt>
      <trkpt lat="51.142701" lon="6.082895">
        <ele>25.480008</ele>
        <time>2019-08-14T13:47:51.142Z</time>
      </trkpt>
      <trkpt lat="51.142283" lon="6.083248">
        <ele>25.677939</ele>
        <time>2019-08-14T13:47:55.920Z</time>
      </trkpt>
      <trkpt lat="51.137824" lon="6.086386">
        <ele>27.713888</ele>
        <time>2019-08-14T13:48:44.220Z</time>
      </trkpt>
      <trkpt lat="51.137766" lon="6.086443">
        <ele>27.741243</ele>
        <time>2019-08-14T13:48:44.949Z</time>
      </trkpt>
      <trkpt lat="51.137574" lon="6.086701">
        <ele>27.842063</ele>
        <time>2019-08-14T13:48:47.427Z</time>
      </trkpt>
      <trkpt lat="51.137226" lon="6.087226">
        <ele>28.034434</ele>
        <time>2019-08-14T13:48:52.149Z</time>
      </trkpt>
      <trkpt lat="51.137193" lon="6.087173">
        <ele>28.053242</ele>
        <time>2019-08-14T13:48:52.705Z</time>
      </trkpt>
      <trkpt lat="51.137035" lon="6.087345">
        <ele>28.130057</ele>
        <time>2019-08-14T13:48:55.291Z</time>
      </trkpt>
      <trkpt lat="51.137004" lon="6.087346">
        <ele>28.142505</ele>
        <time>2019-08-14T13:48:55.642Z</time>
      </trkpt>
      <trkpt lat="51.136929" lon="6.087352">
        <ele>28.172652</ele>
        <time>2019-08-14T13:48:56.683Z</time>
      </trkpt>
      <trkpt lat="51.136889" lon="6.087380">
        <ele>28.190191</ele>
        <time>2019-08-14T13:48:57.203Z</time>
      </trkpt>
      <trkpt lat="51.136845" lon="6.087454">
        <ele>28.215871</ele>
        <time>2019-08-14T13:48:57.994Z</time>
      </trkpt>
      <trkpt lat="51.136770" lon="6.087422">
        <ele>28.247040</ele>
        <time>2019-08-14T13:48:59.154Z</time>
      </trkpt>
      <trkpt lat="51.135461" lon="6.085768">
        <ele>28.740564</ele>
        <time>2019-08-14T13:49:20.787Z</time>
      </trkpt>
      <trkpt lat="51.135247" lon="6.085450">
        <ele>28.805140</ele>
        <time>2019-08-14T13:49:24.443Z</time>
      </trkpt>
      <trkpt lat="51.134860" lon="6.085937">
        <ele>28.744882</ele>
        <time>2019-08-14T13:49:30.468Z</time>
      </trkpt>
      <trkpt lat="51.133710" lon="6.087730">
        <ele>28.588534</ele>
        <time>2019-08-14T13:49:49.237Z</time>
      </trkpt>
      <trkpt lat="51.133310" lon="6.088180">
        <ele>28.584856</ele>
        <time>2019-08-14T13:49:54.959Z</time>
      </trkpt>
      <trkpt lat="51.133190" lon="6.088300">
        <ele>28.583791</ele>
        <time>2019-08-14T13:49:56.651Z</time>
      </trkpt>
      <trkpt lat="51.132360" lon="6.088930">
        <ele>28.584747</ele>
        <time>2019-08-14T13:50:08.329Z</time>
      </trkpt>
      <trkpt lat="51.132095" lon="6.089108">
        <ele>28.604545</ele>
        <time>2019-08-14T13:50:11.918Z</time>
      </trkpt>
      <trkpt lat="51.131780" lon="6.089320">
        <ele>28.628085</ele>
        <time>2019-08-14T13:50:16.153Z</time>
      </trkpt>
      <trkpt lat="51.131340" lon="6.089480">
        <ele>28.659154</ele>
        <time>2019-08-14T13:50:21.698Z</time>
      </trkpt>
      <trkpt lat="51.130980" lon="6.089520">
        <ele>28.683997</ele>
        <time>2019-08-14T13:50:25.985Z</time>
      </trkpt>
      <trkpt lat="51.130916" lon="6.089545">
        <ele>28.688533</ele>
        <time>2019-08-14T13:50:26.735Z</time>
      </trkpt>
      <trkpt lat="51.130868" lon="6.089561">
        <ele>28.691909</ele>
        <time>2019-08-14T13:50:27.323Z</time>
      </trkpt>
      <trkpt lat="51.130844" lon="6.089579">
        <ele>28.693735</ele>
        <time>2019-08-14T13:50:27.606Z</time>
      </trkpt>
      <trkpt lat="51.130111" lon="6.091606">
        <ele>28.633259</ele>
        <time>2019-08-14T13:51:00.165Z</time>
      </trkpt>
      <trkpt lat="51.130082" lon="6.091684">
        <ele>28.630395</ele>
        <time>2019-08-14T13:51:01.521Z</time>
      </trkpt>
      <trkpt lat="51.129926" lon="6.092110">
        <ele>28.614819</ele>
        <time>2019-08-14T13:51:08.258Z</time>
      </trkpt>
      <trkpt lat="51.129654" lon="6.092846">
        <ele>28.663161</ele>
        <time>2019-08-14T13:51:20.348Z</time>
      </trkpt>
      <trkpt lat="51.129278" lon="6.093910">
        <ele>28.750225</ele>
        <time>2019-08-14T13:51:29.986Z</time>
      </trkpt>
      <trkpt lat="51.128372" lon="6.094867">
        <ele>29.066140</ele>
        <time>2019-08-14T13:51:43.672Z</time>
      </trkpt>
      <trkpt lat="51.127719" lon="6.095541">
        <ele>29.445750</ele>
        <time>2019-08-14T13:51:53.824Z</time>
      </trkpt>
      <trkpt lat="51.127719" lon="6.095541">
        <ele>29.445750</ele>
        <time>2019-08-14T13:51:53.915Z</time>
      </trkpt>
      <trkpt lat="51.126788" lon="6.096476">
        <ele>30.100902</ele>
        <time>2019-08-14T13:52:08.859Z</time>
      </trkpt>
      <trkpt lat="51.126500" lon="6.095795">
        <ele>30.454927</ele>
        <time>2019-08-14T13:52:16.198Z</time>
      </trkpt>
      <trkpt lat="51.125906" lon="6.095005">
        <ele>30.965804</ele>
        <time>2019-08-14T13:52:26.803Z</time>
      </trkpt>
      <trkpt lat="51.125842" lon="6.095120">
        <ele>31.008509</ele>
        <time>2019-08-14T13:52:28.185Z</time>
      </trkpt>
      <trkpt lat="51.124769" lon="6.097096">
        <ele>31.719398</ele>
        <time>2019-08-14T13:52:49.840Z</time>
      </trkpt>
      <trkpt lat="51.124380" lon="6.097821">
        <ele>31.576751</ele>
        <time>2019-08-14T13:52:57.241Z</time>
      </trkpt>
      <trkpt lat="51.124170" lon="6.098211">
        <ele>31.499901</ele>
        <time>2019-08-14T13:53:00.988Z</time>
      </trkpt>
      <trkpt lat="51.124100" lon="6.098176">
        <ele>31.482419</ele>
        <time>2019-08-14T13:53:01.746Z</time>
      </trkpt>
      <trkpt lat="51.123685" lon="6.098258">
        <ele>31.382774</ele>
        <time>2019-08-14T13:53:06.462Z</time>
      </trkpt>
      <trkpt lat="51.123091" lon="6.098246">
        <ele>31.183645</ele>
        <time>2019-08-14T13:53:13.083Z</time>
      </trkpt>
      <trkpt lat="51.123031" lon="6.098288">
        <ele>31.151643</ele>
        <time>2019-08-14T13:53:13.719Z</time>
      </trkpt>
      <trkpt lat="51.123001" lon="6.098319">
        <ele>31.134182</ele>
        <time>2019-08-14T13:53:14.112Z</time>
      </trkpt>
      <trkpt lat="51.122931" lon="6.098382">
        <ele>31.094923</ele>
        <time>2019-08-14T13:53:15.016Z</time>
      </trkpt>
      <trkpt lat="51.122830" lon="6.098470">
        <ele>31.038711</ele>
        <time>2019-08-14T13:53:16.307Z</time>
      </trkpt>
      <trkpt lat="51.122670" lon="6.098523">
        <ele>30.958910</ele>
        <time>2019-08-14T13:53:18.013Z</time>
      </trkpt>
      <trkpt lat="51.122525" lon="6.098469">
        <ele>30.886196</ele>
        <time>2019-08-14T13:53:19.668Z</time>
      </trkpt>
      <trkpt lat="51.122409" lon="6.098426">
        <ele>30.828039</ele>
        <time>2019-08-14T13:53:21.014Z</time>
      </trkpt>
      <trkpt lat="51.122033" lon="6.098589">
        <ele>30.637758</ele>
        <time>2019-08-14T13:53:25.277Z</time>
      </trkpt>
      <trkpt lat="51.122007" lon="6.098604">
        <ele>30.624255</ele>
        <time>2019-08-14T13:53:25.545Z</time>
      </trkpt>
      <trkpt lat="51.121919" lon="6.098591">
        <ele>30.581100</ele>
        <time>2019-08-14T13:53:26.550Z</time>
      </trkpt>
      <trkpt lat="51.121721" lon="6.098461">
        <ele>30.476525</ele>
        <time>2019-08-14T13:53:29.009Z</time>
      </trkpt>
      <trkpt lat="51.120696" lon="6.097715">
        <ele>30.587651</ele>
        <time>2019-08-14T13:53:42.776Z</time>
      </trkpt>
      <trkpt lat="51.120305" lon="6.098605">
        <ele>30.702710</ele>
        <time>2019-08-14T13:53:51.521Z</time>
      </trkpt>
      <trkpt lat="51.120178" lon="6.098896">
        <ele>30.785185</ele>
        <time>2019-08-14T13:53:54.621Z</time>
      </trkpt>
      <trkpt lat="51.119550" lon="6.100400">
        <ele>31.430116</ele>
        <time>2019-08-14T13:54:10.365Z</time>
      </trkpt>
      <trkpt lat="51.119521" lon="6.100468">
        <ele>31.459468</ele>
        <time>2019-08-14T13:54:11.039Z</time>
      </trkpt>
      <trkpt lat="51.119757" lon="6.100707">
        <ele>31.618530</ele>
        <time>2019-08-14T13:54:13.961Z</time>
      </trkpt>
      <trkpt lat="51.120241" lon="6.101137">
        <ele>31.784173</ele>
        <time>2019-08-14T13:54:19.204Z</time>
      </trkpt>
      <trkpt lat="51.120474" lon="6.101323">
        <ele>31.815335</ele>
        <time>2019-08-14T13:54:21.751Z</time>
      </trkpt>
      <trkpt lat="51.120672" lon="6.101474">
        <ele>31.841584</ele>
        <time>2019-08-14T13:54:23.839Z</time>
      </trkpt>
      <trkpt lat="51.120992" lon="6.101750">
        <ele>31.885095</ele>
        <time>2019-08-14T13:54:27.283Z</time>
      </trkpt>
      <trkpt lat="51.121222" lon="6.101932">
        <ele>31.915803</ele>
        <time>2019-08-14T13:54:29.496Z</time>
      </trkpt>
      <trkpt lat="51.121551" lon="6.102192">
        <ele>31.958684</ele>
        <time>2019-08-14T13:54:32.607Z</time>
      </trkpt>
      <trkpt lat="51.121514" lon="6.102407">
        <ele>31.914682</ele>
        <time>2019-08-14T13:54:34.275Z</time>
      </trkpt>
      <trkpt lat="51.121470" lon="6.102518">
        <ele>31.888770</ele>
        <time>2019-08-14T13:54:35.207Z</time>
      </trkpt>
      <trkpt lat="51.121262" lon="6.102750">
        <ele>31.808927</ele>
        <time>2019-08-14T13:54:38.036Z</time>
      </trkpt>
      <trkpt lat="51.120945" lon="6.103098">
        <ele>31.687871</ele>
        <time>2019-08-14T13:54:42.358Z</time>
      </trkpt>
      <trkpt lat="51.120917" lon="6.103131">
        <ele>31.676919</ele>
        <time>2019-08-14T13:54:42.718Z</time>
      </trkpt>
      <trkpt lat="51.120307" lon="6.103780">
        <ele>31.446259</ele>
        <time>2019-08-14T13:54:51.120Z</time>
      </trkpt>
      <trkpt lat="51.119778" lon="6.104352">
        <ele>31.327142</ele>
        <time>2019-08-14T13:54:58.610Z</time>
      </trkpt>
      <trkpt lat="51.119753" lon="6.104381">
        <ele>31.322778</ele>
        <time>2019-08-14T13:54:58.993Z</time>
      </trkpt>
      <trkpt lat="51.118434" lon="6.105900">
        <ele>31.093448</ele>
        <time>2019-08-14T13:55:18.449Z</time>
      </trkpt>
      <trkpt lat="51.117896" lon="6.106747">
        <ele>30.987484</ele>
        <time>2019-08-14T13:55:27.342Z</time>
      </trkpt>
      <trkpt lat="51.116536" lon="6.108875">
        <ele>30.776548</ele>
        <time>2019-08-14T13:55:49.801Z</time>
      </trkpt>
      <trkpt lat="51.116487" lon="6.108964">
        <ele>30.769623</ele>
        <time>2019-08-14T13:55:50.768Z</time>
      </trkpt>
      <trkpt lat="51.116271" lon="6.109303">
        <ele>30.741367</ele>
        <time>2019-08-14T13:55:54.418Z</time>
      </trkpt>
      <trkpt lat="51.114773" lon="6.111691">
        <ele>30.859970</ele>
        <time>2019-08-14T13:56:20.390Z</time>
      </trkpt>
      <trkpt lat="51.114846" lon="6.113243">
        <ele>31.228831</ele>
        <time>2019-08-14T13:56:32.789Z</time>
      </trkpt>
      <trkpt lat="51.114850" lon="6.113341">
        <ele>31.252106</ele>
        <time>2019-08-14T13:56:33.571Z</time>
      </trkpt>
      <trkpt lat="51.114849" lon="6.113382">
        <ele>31.261831</ele>
        <time>2019-08-14T13:56:33.909Z</time>
      </trkpt>
      <trkpt lat="51.114859" lon="6.113565">
        <ele>31.305366</ele>
        <time>2019-08-14T13:56:35.396Z</time>
      </trkpt>
      <trkpt lat="51.114999" lon="6.116931">
        <ele>32.847246</ele>
        <time>2019-08-14T13:57:05.583Z</time>
      </trkpt>
      <trkpt lat="51.115030" lon="6.118485">
        <ele>33.321186</ele>
        <time>2019-08-14T13:57:19.265Z</time>
      </trkpt>
      <trkpt lat="51.115034" lon="6.118566">
        <ele>33.341139</ele>
        <time>2019-08-14T13:57:19.880Z</time>
      </trkpt>
      <trkpt lat="51.115180" lon="6.120096">
        <ele>33.721182</ele>
        <time>2019-08-14T13:57:32.099Z</time>
      </trkpt>
      <trkpt lat="51.115229" lon="6.120743">
        <ele>33.683965</ele>
        <time>2019-08-14T13:57:37.027Z</time>
      </trkpt>
      <trkpt lat="51.115238" lon="6.120847">
        <ele>33.677657</ele>
        <time>2019-08-14T13:57:37.739Z</time>
      </trkpt>
      <trkpt lat="51.115608" lon="6.125052">
        <ele>33.677314</ele>
        <time>2019-08-14T13:58:09.432Z</time>
      </trkpt>
      <trkpt lat="51.115586" lon="6.125430">
        <ele>33.699888</ele>
        <time>2019-08-14T13:58:12.504Z</time>
      </trkpt>
      <trkpt lat="51.115246" lon="6.127630">
        <ele>34.618275</ele>
        <time>2019-08-14T13:58:32.365Z</time>
      </trkpt>
      <trkpt lat="51.115007" lon="6.129254">
        <ele>35.353514</ele>
        <time>2019-08-14T13:58:47.311Z</time>
      </trkpt>
      <trkpt lat="51.114987" lon="6.129337">
        <ele>35.389294</ele>
        <time>2019-08-14T13:58:48.166Z</time>
      </trkpt>
      <trkpt lat="51.114857" lon="6.129564">
        <ele>35.512958</ele>
        <time>2019-08-14T13:58:50.810Z</time>
      </trkpt>
      <trkpt lat="51.114686" lon="6.130127">
        <ele>35.764672</ele>
        <time>2019-08-14T13:58:56.307Z</time>
      </trkpt>
      <trkpt lat="51.114210" lon="6.131840">
        <ele>36.263104</ele>
        <time>2019-08-14T13:59:11.611Z</time>
      </trkpt>
      <trkpt lat="51.114204" lon="6.131861">
        <ele>36.264466</ele>
        <time>2019-08-14T13:59:11.791Z</time>
      </trkpt>
      <trkpt lat="51.114140" lon="6.132061">
        <ele>36.277710</ele>
        <time>2019-08-14T13:59:13.535Z</time>
      </trkpt>
      <trkpt lat="51.113618" lon="6.133396">
        <ele>36.370500</ele>
        <time>2019-08-14T13:59:25.550Z</time>
      </trkpt>
      <trkpt lat="51.113557" lon="6.133927">
        <ele>36.378878</ele>
        <time>2019-08-14T13:59:29.588Z</time>
      </trkpt>
      <trkpt lat="51.113173" lon="6.138114">
        <ele>36.341079</ele>
        <time>2019-08-14T14:00:01.488Z</time>
      </trkpt>
      <trkpt lat="51.113115" lon="6.138606">
        <ele>36.361411</ele>
        <time>2019-08-14T14:00:05.472Z</time>
      </trkpt>
      <trkpt lat="51.112999" lon="6.139447">
        <ele>36.448721</ele>
        <time>2019-08-14T14:00:12.374Z</time>
      </trkpt>
      <trkpt lat="51.112907" lon="6.140085">
        <ele>36.811513</ele>
        <time>2019-08-14T14:00:17.769Z</time>
      </trkpt>
      <trkpt lat="51.112892" lon="6.140248">
        <ele>36.902814</ele>
        <time>2019-08-14T14:00:19.183Z</time>
      </trkpt>
      <trkpt lat="51.112857" lon="6.140243">
        <ele>36.933836</ele>
        <time>2019-08-14T14:00:19.555Z</time>
      </trkpt>
      <trkpt lat="51.112721" lon="6.140404">
        <ele>37.083422</ele>
        <time>2019-08-14T14:00:21.237Z</time>
      </trkpt>
      <trkpt lat="51.112718" lon="6.140430">
        <ele>37.098073</ele>
        <time>2019-08-14T14:00:21.433Z</time>
      </trkpt>
      <trkpt lat="51.112714" lon="6.140460">
        <ele>37.115070</ele>
        <time>2019-08-14T14:00:21.594Z</time>
      </trkpt>
      <trkpt lat="51.112798" lon="6.140693">
        <ele>37.263979</ele>
        <time>2019-08-14T14:00:23.462Z</time>
      </trkpt>
      <trkpt lat="51.112832" lon="6.140711">
        <ele>37.295608</ele>
        <time>2019-08-14T14:00:23.813Z</time>
      </trkpt>
      <trkpt lat="51.112543" lon="6.142748">
        <ele>38.850653</ele>
        <time>2019-08-14T14:00:39.839Z</time>
      </trkpt>
      <trkpt lat="51.112431" lon="6.143948">
        <ele>40.088361</ele>
        <time>2019-08-14T14:00:49.821Z</time>
      </trkpt>
      <trkpt lat="51.112416" lon="6.144593">
        <ele>40.746848</ele>
        <time>2019-08-14T14:00:55.244Z</time>
      </trkpt>
      <trkpt lat="51.112448" lon="6.145593">
        <ele>41.596672</ele>
        <time>2019-08-14T14:01:03.396Z</time>
      </trkpt>
      <trkpt lat="51.112456" lon="6.145711">
        <ele>41.693730</ele>
        <time>2019-08-14T14:01:04.467Z</time>
      </trkpt>
      <trkpt lat="51.112503" lon="6.146464">
        <ele>42.312551</ele>
        <time>2019-08-14T14:01:10.166Z</time>
      </trkpt>
      <trkpt lat="51.112671" lon="6.147698">
        <ele>43.300145</ele>
        <time>2019-08-14T14:01:19.037Z</time>
      </trkpt>
      <trkpt lat="51.112933" lon="6.148931">
        <ele>43.881768</ele>
        <time>2019-08-14T14:01:27.728Z</time>
      </trkpt>
      <trkpt lat="51.113035" lon="6.149231">
        <ele>44.034207</ele>
        <time>2019-08-14T14:01:29.959Z</time>
      </trkpt>
      <trkpt lat="51.113175" lon="6.149691">
        <ele>44.262619</ele>
        <time>2019-08-14T14:01:33.293Z</time>
      </trkpt>
      <trkpt lat="51.113254" lon="6.149819">
        <ele>44.342820</ele>
        <time>2019-08-14T14:01:34.494Z</time>
      </trkpt>
      <trkpt lat="51.113184" lon="6.150413">
        <ele>44.654971</ele>
        <time>2019-08-14T14:01:38.434Z</time>
      </trkpt>
      <trkpt lat="51.113161" lon="6.150548">
        <ele>44.747804</ele>
        <time>2019-08-14T14:01:39.318Z</time>
      </trkpt>
      <trkpt lat="51.113072" lon="6.150983">
        <ele>45.051435</ele>
        <time>2019-08-14T14:01:42.394Z</time>
      </trkpt>
      <trkpt lat="51.113064" lon="6.151022">
        <ele>45.078664</ele>
        <time>2019-08-14T14:01:42.740Z</time>
      </trkpt>
      <trkpt lat="51.113044" lon="6.151117">
        <ele>45.145161</ele>
        <time>2019-08-14T14:01:43.349Z</time>
      </trkpt>
      <trkpt lat="51.112999" lon="6.151339">
        <ele>45.299981</ele>
        <time>2019-08-14T14:01:44.872Z</time>
      </trkpt>
      <trkpt lat="51.112904" lon="6.151803">
        <ele>45.623877</ele>
        <time>2019-08-14T14:01:48.264Z</time>
      </trkpt>
      <trkpt lat="51.113053" lon="6.151989">
        <ele>45.823995</ele>
        <time>2019-08-14T14:01:51.157Z</time>
      </trkpt>
      <trkpt lat="51.113375" lon="6.152760">
        <ele>46.454394</ele>
        <time>2019-08-14T14:02:00.059Z</time>
      </trkpt>
      <trkpt lat="51.113447" lon="6.152836">
        <ele>46.676435</ele>
        <time>2019-08-14T14:02:01.485Z</time>
      </trkpt>
      <trkpt lat="51.113509" lon="6.152844">
        <ele>46.836342</ele>
        <time>2019-08-14T14:02:02.653Z</time>
      </trkpt>
      <trkpt lat="51.114029" lon="6.152673">
        <ele>48.201302</ele>
        <time>2019-08-14T14:02:11.436Z</time>
      </trkpt>
      <trkpt lat="51.114514" lon="6.152979">
        <ele>49.542334</ele>
        <time>2019-08-14T14:02:21.567Z</time>
      </trkpt>
      <trkpt lat="51.115157" lon="6.153029">
        <ele>51.236143</ele>
        <time>2019-08-14T14:02:34.399Z</time>
      </trkpt>
      <trkpt lat="51.115642" lon="6.153225">
        <ele>52.864916</ele>
        <time>2019-08-14T14:02:43.701Z</time>
      </trkpt>
      <trkpt lat="51.115759" lon="6.153357">
        <ele>53.331615</ele>
        <time>2019-08-14T14:02:46.998Z</time>
      </trkpt>
      <trkpt lat="51.115786" lon="6.153461">
        <ele>53.561589</ele>
        <time>2019-08-14T14:02:48.647Z</time>
      </trkpt>
      <trkpt lat="51.115767" lon="6.153918">
        <ele>54.497484</ele>
        <time>2019-08-14T14:02:54.366Z</time>
      </trkpt>
      <trkpt lat="51.115669" lon="6.154251">
        <ele>55.249014</ele>
        <time>2019-08-14T14:02:58.809Z</time>
      </trkpt>
      <trkpt lat="51.115620" lon="6.154298">
        <ele>55.435201</ele>
        <time>2019-08-14T14:03:00.385Z</time>
      </trkpt>
      <trkpt lat="51.115566" lon="6.154305">
        <ele>55.611562</ele>
        <time>2019-08-14T14:03:01.256Z</time>
      </trkpt>
      <trkpt lat="51.115416" lon="6.154509">
        <ele>56.253581</ele>
        <time>2019-08-14T14:03:05.385Z</time>
      </trkpt>
      <trkpt lat="51.115413" lon="6.154526">
        <ele>56.289666</ele>
        <time>2019-08-14T14:03:05.480Z</time>
      </trkpt>
      <trkpt lat="51.115408" lon="6.154558">
        <ele>56.357052</ele>
        <time>2019-08-14T14:03:05.700Z</time>
      </trkpt>
      <trkpt lat="51.115413" lon="6.154683">
        <ele>56.613001</ele>
        <time>2019-08-14T14:03:07.822Z</time>
      </trkpt>
      <trkpt lat="51.115445" lon="6.154809">
        <ele>56.890749</ele>
        <time>2019-08-14T14:03:09.290Z</time>
      </trkpt>
      <trkpt lat="51.115497" lon="6.154872">
        <ele>57.053819</ele>
        <time>2019-08-14T14:03:10.768Z</time>
      </trkpt>
      <trkpt lat="51.115509" lon="6.154933">
        <ele>57.151601</ele>
        <time>2019-08-14T14:03:11.645Z</time>
      </trkpt>
      <trkpt lat="51.115582" lon="6.155172">
        <ele>57.558159</ele>
        <time>2019-08-14T14:03:14.908Z</time>
      </trkpt>
      <trkpt lat="51.115676" lon="6.155500">
        <ele>58.109685</ele>
        <time>2019-08-14T14:03:19.230Z</time>
      </trkpt>
      <trkpt lat="51.115839" lon="6.156034">
        <ele>59.017947</ele>
        <time>2019-08-14T14:03:25.321Z</time>
      </trkpt>
      <trkpt lat="51.115969" lon="6.156341">
        <ele>59.584389</ele>
        <time>2019-08-14T14:03:28.710Z</time>
      </trkpt>
      <trkpt lat="51.116174" lon="6.156574">
        <ele>60.198016</ele>
        <time>2019-08-14T14:03:33.295Z</time>
      </trkpt>
      <trkpt lat="51.116435" lon="6.156849">
        <ele>60.960510</ele>
        <time>2019-08-14T14:03:39.271Z</time>
      </trkpt>
      <trkpt lat="51.116774" lon="6.157247">
        <ele>62.305054</ele>
        <time>2019-08-14T14:03:46.376Z</time>
      </trkpt>
      <trkpt lat="51.116780" lon="6.157254">
        <ele>62.331446</ele>
        <time>2019-08-14T14:03:46.603Z</time>
      </trkpt>
      <trkpt lat="51.117130" lon="6.157698">
        <ele>63.919165</ele>
        <time>2019-08-14T14:03:55.330Z</time>
      </trkpt>
      <trkpt lat="51.117277" lon="6.157877">
        <ele>64.575756</ele>
        <time>2019-08-14T14:03:58.974Z</time>
      </trkpt>
      <trkpt lat="51.117408" lon="6.158000">
        <ele>65.115365</ele>
        <time>2019-08-14T14:04:02.280Z</time>
      </trkpt>
      <trkpt lat="51.117470" lon="6.158069">
        <ele>65.383751</ele>
        <time>2019-08-14T14:04:03.914Z</time>
      </trkpt>
      <trkpt lat="51.117688" lon="6.158278">
        <ele>66.286642</ele>
        <time>2019-08-14T14:04:08.899Z</time>
      </trkpt>
      <trkpt lat="51.117806" lon="6.158407">
        <ele>66.794496</ele>
        <time>2019-08-14T14:04:12.350Z</time>
      </trkpt>
      <trkpt lat="51.117932" lon="6.158697">
        <ele>67.580135</ele>
        <time>2019-08-14T14:04:17.247Z</time>
      </trkpt>
      <trkpt lat="51.117953" lon="6.158747">
        <ele>67.731955</ele>
        <time>2019-08-14T14:04:18.556Z</time>
      </trkpt>
      <trkpt lat="51.118043" lon="6.159007">
        <ele>68.670429</ele>
        <time>2019-08-14T14:04:22.877Z</time>
      </trkpt>
      <trkpt lat="51.118128" lon="6.159305">
        <ele>69.705023</ele>
        <time>2019-08-14T14:04:28.392Z</time>
      </trkpt>
      <trkpt lat="51.118179" lon="6.159595">
        <ele>70.656940</ele>
        <time>2019-08-14T14:04:33.187Z</time>
      </trkpt>
      <trkpt lat="51.118225" lon="6.160313">
        <ele>72.938160</ele>
        <time>2019-08-14T14:04:44.728Z</time>
      </trkpt>
      <trkpt lat="51.118236" lon="6.160556">
        <ele>73.708221</ele>
        <time>2019-08-14T14:04:48.589Z</time>
      </trkpt>
      <trkpt lat="51.118243" lon="6.160711">
        <ele>74.199406</ele>
        <time>2019-08-14T14:04:50.998Z</time>
      </trkpt>
      <trkpt lat="51.118294" lon="6.160949">
        <ele>74.994292</ele>
        <time>2019-08-14T14:04:55.238Z</time>
      </trkpt>
      <trkpt lat="51.118364" lon="6.161176">
        <ele>75.793688</ele>
        <time>2019-08-14T14:04:58.864Z</time>
      </trkpt>
      <trkpt lat="51.118420" lon="6.161278">
        <ele>76.222001</ele>
        <time>2019-08-14T14:05:00.987Z</time>
      </trkpt>
      <trkpt lat="51.118451" lon="6.161333">
        <ele>76.455639</ele>
        <time>2019-08-14T14:05:02.214Z</time>
      </trkpt>
      <trkpt lat="51.119748" lon="6.163168">
        <ele>82.496135</ele>
        <time>2019-08-14T14:05:37.659Z</time>
      </trkpt>
      <trkpt lat="51.119982" lon="6.163474">
        <ele>83.221394</ele>
        <time>2019-08-14T14:05:42.908Z</time>
      </trkpt>
      <trkpt lat="51.120681" lon="6.164387">
        <ele>84.786806</ele>
        <time>2019-08-14T14:05:57.805Z</time>
      </trkpt>
      <trkpt lat="51.121307" lon="6.165285">
        <ele>86.095796</ele>
        <time>2019-08-14T14:06:10.652Z</time>
      </trkpt>
      <trkpt lat="51.121312" lon="6.166239">
        <ele>86.453810</ele>
        <time>2019-08-14T14:06:19.041Z</time>
      </trkpt>
      <trkpt lat="51.121319" lon="6.167634">
        <ele>86.977320</ele>
        <time>2019-08-14T14:06:30.575Z</time>
      </trkpt>
      <trkpt lat="51.121321" lon="6.168073">
        <ele>87.118050</ele>
        <time>2019-08-14T14:06:34.002Z</time>
      </trkpt>
      <trkpt lat="51.121321" lon="6.168119">
        <ele>87.127011</ele>
        <time>2019-08-14T14:06:34.374Z</time>
      </trkpt>
      <trkpt lat="51.121324" lon="6.168634">
        <ele>87.227338</ele>
        <time>2019-08-14T14:06:38.550Z</time>
      </trkpt>
      <trkpt lat="51.121335" lon="6.170913">
        <ele>87.668091</ele>
        <time>2019-08-14T14:06:57.153Z</time>
      </trkpt>
      <trkpt lat="51.121333" lon="6.171213">
        <ele>87.717570</ele>
        <time>2019-08-14T14:06:59.328Z</time>
      </trkpt>
      <trkpt lat="51.121336" lon="6.171643">
        <ele>87.788491</ele>
        <time>2019-08-14T14:07:02.866Z</time>
      </trkpt>
      <trkpt lat="51.121340" lon="6.172601">
        <ele>87.946490</ele>
        <time>2019-08-14T14:07:10.773Z</time>
      </trkpt>
      <trkpt lat="51.121341" lon="6.172829">
        <ele>87.984093</ele>
        <time>2019-08-14T14:07:12.601Z</time>
      </trkpt>
      <trkpt lat="51.121342" lon="6.172959">
        <ele>88.005534</ele>
        <time>2019-08-14T14:07:13.504Z</time>
      </trkpt>
      <trkpt lat="51.121343" lon="6.173262">
        <ele>88.055506</ele>
        <time>2019-08-14T14:07:16.142Z</time>
      </trkpt>
      <trkpt lat="51.121343" lon="6.173626">
        <ele>88.115537</ele>
        <time>2019-08-14T14:07:18.788Z</time>
      </trkpt>
      <trkpt lat="51.121345" lon="6.173683">
        <ele>88.122589</ele>
        <time>2019-08-14T14:07:19.544Z</time>
      </trkpt>
      <trkpt lat="51.121348" lon="6.174203">
        <ele>88.107538</ele>
        <time>2019-08-14T14:07:23.167Z</time>
      </trkpt>
      <trkpt lat="51.121317" lon="6.174251">
        <ele>88.105545</ele>
        <time>2019-08-14T14:07:24.002Z</time>
      </trkpt>
      <trkpt lat="51.119877" lon="6.175026">
        <ele>87.963148</ele>
        <time>2019-08-14T14:07:42.542Z</time>
      </trkpt>
      <trkpt lat="51.118296" lon="6.175888">
        <ele>86.660458</ele>
        <time>2019-08-14T14:08:00.133Z</time>
      </trkpt>
      <trkpt lat="51.118113" lon="6.176131">
        <ele>86.449368</ele>
        <time>2019-08-14T14:08:02.567Z</time>
      </trkpt>
      <trkpt lat="51.116628" lon="6.178112">
        <ele>84.868063</ele>
        <time>2019-08-14T14:08:23.010Z</time>
      </trkpt>
      <trkpt lat="51.116603" lon="6.178144">
        <ele>84.854265</ele>
        <time>2019-08-14T14:08:23.360Z</time>
      </trkpt>
      <trkpt lat="51.116531" lon="6.178242">
        <ele>84.813522</ele>
        <time>2019-08-14T14:08:24.425Z</time>
      </trkpt>
      <trkpt lat="51.116318" lon="6.178522">
        <ele>84.694711</ele>
        <time>2019-08-14T14:08:27.453Z</time>
      </trkpt>
      <trkpt lat="51.116216" lon="6.178657">
        <ele>84.637658</ele>
        <time>2019-08-14T14:08:28.997Z</time>
      </trkpt>
      <trkpt lat="51.115586" lon="6.179490">
        <ele>84.285412</ele>
        <time>2019-08-14T14:08:38.534Z</time>
      </trkpt>
      <trkpt lat="51.115446" lon="6.179676">
        <ele>84.261735</ele>
        <time>2019-08-14T14:08:40.758Z</time>
      </trkpt>
      <trkpt lat="51.115261" lon="6.179920">
        <ele>84.312380</ele>
        <time>2019-08-14T14:08:43.685Z</time>
      </trkpt>
      <trkpt lat="51.114813" lon="6.180558">
        <ele>84.439095</ele>
        <time>2019-08-14T14:08:50.995Z</time>
      </trkpt>
      <trkpt lat="51.113738" lon="6.182004">
        <ele>84.739643</ele>
        <time>2019-08-14T14:09:09.679Z</time>
      </trkpt>
      <trkpt lat="51.113355" lon="6.182519">
        <ele>84.848950</ele>
        <time>2019-08-14T14:09:16.070Z</time>
      </trkpt>
      <trkpt lat="51.112787" lon="6.183280">
        <ele>85.010813</ele>
        <time>2019-08-14T14:09:25.186Z</time>
      </trkpt>
      <trkpt lat="51.111821" lon="6.184597">
        <ele>84.756905</ele>
        <time>2019-08-14T14:09:39.977Z</time>
      </trkpt>
      <trkpt lat="51.111504" lon="6.185016">
        <ele>84.671847</ele>
        <time>2019-08-14T14:09:44.689Z</time>
      </trkpt>
      <trkpt lat="51.111462" lon="6.185083">
        <ele>84.659573</ele>
        <time>2019-08-14T14:09:45.178Z</time>
      </trkpt>
      <trkpt lat="51.111151" lon="6.185507">
        <ele>84.669638</ele>
        <time>2019-08-14T14:09:48.589Z</time>
      </trkpt>
      <trkpt lat="51.109935" lon="6.187196">
        <ele>84.807529</ele>
        <time>2019-08-14T14:10:03.757Z</time>
      </trkpt>
      <trkpt lat="51.109717" lon="6.187499">
        <ele>84.855471</ele>
        <time>2019-08-14T14:10:06.565Z</time>
      </trkpt>
      <trkpt lat="51.108969" lon="6.188540">
        <ele>85.020062</ele>
        <time>2019-08-14T14:10:15.722Z</time>
      </trkpt>
      <trkpt lat="51.108852" lon="6.188702">
        <ele>85.045750</ele>
        <time>2019-08-14T14:10:17.127Z</time>
      </trkpt>
      <trkpt lat="51.108663" lon="6.188961">
        <ele>85.082998</ele>
        <time>2019-08-14T14:10:19.471Z</time>
      </trkpt>
      <trkpt lat="51.108318" lon="6.189433">
        <ele>85.107524</ele>
        <time>2019-08-14T14:10:23.690Z</time>
      </trkpt>
      <trkpt lat="51.108285" lon="6.189472">
        <ele>85.109740</ele>
        <time>2019-08-14T14:10:24.038Z</time>
      </trkpt>
      <trkpt lat="51.108121" lon="6.189669">
        <ele>85.120817</ele>
        <time>2019-08-14T14:10:25.900Z</time>
      </trkpt>
      <trkpt lat="51.107637" lon="6.190103">
        <ele>85.150770</ele>
        <time>2019-08-14T14:10:30.758Z</time>
      </trkpt>
      <trkpt lat="51.107623" lon="6.190111">
        <ele>85.151572</ele>
        <time>2019-08-14T14:10:30.890Z</time>
      </trkpt>
      <trkpt lat="51.107370" lon="6.190255">
        <ele>85.166060</ele>
        <time>2019-08-14T14:10:33.271Z</time>
      </trkpt>
      <trkpt lat="51.105410" lon="6.190800">
        <ele>85.437280</ele>
        <time>2019-08-14T14:10:51.919Z</time>
      </trkpt>
      <trkpt lat="51.105154" lon="6.190997">
        <ele>85.366702</ele>
        <time>2019-08-14T14:10:54.413Z</time>
      </trkpt>
      <trkpt lat="51.104886" lon="6.191205">
        <ele>85.278294</ele>
        <time>2019-08-14T14:10:56.945Z</time>
      </trkpt>
      <trkpt lat="51.103297" lon="6.192828">
        <ele>84.544556</ele>
        <time>2019-08-14T14:11:12.181Z</time>
      </trkpt>
      <trkpt lat="51.103040" lon="6.193133">
        <ele>84.362469</ele>
        <time>2019-08-14T14:11:14.708Z</time>
      </trkpt>
      <trkpt lat="51.102757" lon="6.193437">
        <ele>84.168536</ele>
        <time>2019-08-14T14:11:17.330Z</time>
      </trkpt>
      <trkpt lat="51.102390" lon="6.193550">
        <ele>83.956176</ele>
        <time>2019-08-14T14:11:20.208Z</time>
      </trkpt>
      <trkpt lat="51.102317" lon="6.193572">
        <ele>83.913968</ele>
        <time>2019-08-14T14:11:20.710Z</time>
      </trkpt>
      <trkpt lat="51.101878" lon="6.193775">
        <ele>83.798610</ele>
        <time>2019-08-14T14:11:24.307Z</time>
      </trkpt>
      <trkpt lat="51.101235" lon="6.194214">
        <ele>83.648071</ele>
        <time>2019-08-14T14:11:29.932Z</time>
      </trkpt>
      <trkpt lat="51.100485" lon="6.194682">
        <ele>83.588786</ele>
        <time>2019-08-14T14:11:37.556Z</time>
      </trkpt>
      <trkpt lat="51.100820" lon="6.195509">
        <ele>84.066206</ele>
        <time>2019-08-14T14:11:43.668Z</time>
      </trkpt>
      <trkpt lat="51.100857" lon="6.195597">
        <ele>84.117581</ele>
        <time>2019-08-14T14:11:44.474Z</time>
      </trkpt>
      <trkpt lat="51.100924" lon="6.195760">
        <ele>84.212088</ele>
        <time>2019-08-14T14:11:45.764Z</time>
      </trkpt>
      <trkpt lat="51.100997" lon="6.195986">
        <ele>84.335377</ele>
        <time>2019-08-14T14:11:47.508Z</time>
      </trkpt>
      <trkpt lat="51.101029" lon="6.196110">
        <ele>84.400413</ele>
        <time>2019-08-14T14:11:48.558Z</time>
      </trkpt>
      <trkpt lat="51.101063" lon="6.196265">
        <ele>84.480060</ele>
        <time>2019-08-14T14:11:49.690Z</time>
      </trkpt>
      <trkpt lat="51.101110" lon="6.196598">
        <ele>84.645632</ele>
        <time>2019-08-14T14:11:52.228Z</time>
      </trkpt>
      <trkpt lat="51.101122" lon="6.196693">
        <ele>84.692640</ele>
        <time>2019-08-14T14:11:52.961Z</time>
      </trkpt>
      <trkpt lat="51.101206" lon="6.197366">
        <ele>85.052745</ele>
        <time>2019-08-14T14:11:58.204Z</time>
      </trkpt>
      <trkpt lat="51.101275" lon="6.197897">
        <ele>85.368321</ele>
        <time>2019-08-14T14:12:02.139Z</time>
      </trkpt>
      <trkpt lat="51.101567" lon="6.199559">
        <ele>86.372707</ele>
        <time>2019-08-14T14:12:13.849Z</time>
      </trkpt>
      <trkpt lat="51.101726" lon="6.200468">
        <ele>86.798212</ele>
        <time>2019-08-14T14:12:20.368Z</time>
      </trkpt>
      <trkpt lat="51.101755" lon="6.200642">
        <ele>86.867567</ele>
        <time>2019-08-14T14:12:21.623Z</time>
      </trkpt>
      <trkpt lat="51.101904" lon="6.201532">
        <ele>87.222417</ele>
        <time>2019-08-14T14:12:27.485Z</time>
      </trkpt>
      <trkpt lat="51.102266" lon="6.202690">
        <ele>87.703532</ele>
        <time>2019-08-14T14:12:35.592Z</time>
      </trkpt>
      <trkpt lat="51.102323" lon="6.202870">
        <ele>87.759331</ele>
        <time>2019-08-14T14:12:36.995Z</time>
      </trkpt>
      <trkpt lat="51.102399" lon="6.203040">
        <ele>87.817092</ele>
        <time>2019-08-14T14:12:38.449Z</time>
      </trkpt>
      <trkpt lat="51.102526" lon="6.203210">
        <ele>87.890221</ele>
        <time>2019-08-14T14:12:40.231Z</time>
      </trkpt>
      <trkpt lat="51.102924" lon="6.203763">
        <ele>88.123042</ele>
        <time>2019-08-14T14:12:45.617Z</time>
      </trkpt>
      <trkpt lat="51.103307" lon="6.204491">
        <ele>88.385917</ele>
        <time>2019-08-14T14:12:51.286Z</time>
      </trkpt>
      <trkpt lat="51.103443" lon="6.204898">
        <ele>88.428194</ele>
        <time>2019-08-14T14:12:54.078Z</time>
      </trkpt>
      <trkpt lat="51.103568" lon="6.205307">
        <ele>88.378362</ele>
        <time>2019-08-14T14:12:56.740Z</time>
      </trkpt>
      <trkpt lat="51.103735" lon="6.205680">
        <ele>88.328176</ele>
        <time>2019-08-14T14:12:59.327Z</time>
      </trkpt>
      <trkpt lat="51.103907" lon="6.206013">
        <ele>88.280939</ele>
        <time>2019-08-14T14:13:01.611Z</time>
      </trkpt>
      <trkpt lat="51.104165" lon="6.206511">
        <ele>88.210211</ele>
        <time>2019-08-14T14:13:04.931Z</time>
      </trkpt>
      <trkpt lat="51.104377" lon="6.206923">
        <ele>88.151857</ele>
        <time>2019-08-14T14:13:07.551Z</time>
      </trkpt>
      <trkpt lat="51.104797" lon="6.207715">
        <ele>87.909475</ele>
        <time>2019-08-14T14:13:12.688Z</time>
      </trkpt>
      <trkpt lat="51.105374" lon="6.208832">
        <ele>87.547509</ele>
        <time>2019-08-14T14:13:20.259Z</time>
      </trkpt>
      <trkpt lat="51.105569" lon="6.209217">
        <ele>87.423726</ele>
        <time>2019-08-14T14:13:22.780Z</time>
      </trkpt>
      <trkpt lat="51.106270" lon="6.210605">
        <ele>87.004607</ele>
        <time>2019-08-14T14:13:31.847Z</time>
      </trkpt>
      <trkpt lat="51.106322" lon="6.210736">
        <ele>86.968151</ele>
        <time>2019-08-14T14:13:32.757Z</time>
      </trkpt>
      <trkpt lat="51.106322" lon="6.210804">
        <ele>86.952156</ele>
        <time>2019-08-14T14:13:33.106Z</time>
      </trkpt>
      <trkpt lat="51.106310" lon="6.211008">
        <ele>86.903961</ele>
        <time>2019-08-14T14:13:34.218Z</time>
      </trkpt>
      <trkpt lat="51.106268" lon="6.211029">
        <ele>86.887470</ele>
        <time>2019-08-14T14:13:34.736Z</time>
      </trkpt>
      <trkpt lat="51.106240" lon="6.211043">
        <ele>86.876476</ele>
        <time>2019-08-14T14:13:34.939Z</time>
      </trkpt>
      <trkpt lat="51.104654" lon="6.211471">
        <ele>86.307134</ele>
        <time>2019-08-14T14:13:47.848Z</time>
      </trkpt>
      <trkpt lat="51.104553" lon="6.211513">
        <ele>86.270774</ele>
        <time>2019-08-14T14:13:48.688Z</time>
      </trkpt>
      <trkpt lat="51.104322" lon="6.211634">
        <ele>86.186071</ele>
        <time>2019-08-14T14:13:50.715Z</time>
      </trkpt>
      <trkpt lat="51.104209" lon="6.211687">
        <ele>86.145039</ele>
        <time>2019-08-14T14:13:51.712Z</time>
      </trkpt>
      <trkpt lat="51.104239" lon="6.211858">
        <ele>86.131991</ele>
        <time>2019-08-14T14:13:53.024Z</time>
      </trkpt>
      <trkpt lat="51.104221" lon="6.212249">
        <ele>86.191734</ele>
        <time>2019-08-14T14:13:56.015Z</time>
      </trkpt>
      <trkpt lat="51.104109" lon="6.212568">
        <ele>86.247428</ele>
        <time>2019-08-14T14:13:58.919Z</time>
      </trkpt>
      <trkpt lat="51.103944" lon="6.213062">
        <ele>86.332695</ele>
        <time>2019-08-14T14:14:03.478Z</time>
      </trkpt>
      <trkpt lat="51.103818" lon="6.213706">
        <ele>86.435486</ele>
        <time>2019-08-14T14:14:09.068Z</time>
      </trkpt>
      <trkpt lat="51.103579" lon="6.214223">
        <ele>86.533318</ele>
        <time>2019-08-14T14:14:14.325Z</time>
      </trkpt>
      <trkpt lat="51.103428" lon="6.214509">
        <ele>86.584288</ele>
        <time>2019-08-14T14:14:17.392Z</time>
      </trkpt>
      <trkpt lat="51.103217" lon="6.214962">
        <ele>86.654369</ele>
        <time>2019-08-14T14:14:22.011Z</time>
      </trkpt>
      <trkpt lat="51.103026" lon="6.215349">
        <ele>86.715531</ele>
        <time>2019-08-14T14:14:26.122Z</time>
      </trkpt>
      <trkpt lat="51.102925" lon="6.215757">
        <ele>86.770023</ele>
        <time>2019-08-14T14:14:29.714Z</time>
      </trkpt>
      <trkpt lat="51.102824" lon="6.216267">
        <ele>86.836469</ele>
        <time>2019-08-14T14:14:33.987Z</time>
      </trkpt>
      <trkpt lat="51.102704" lon="6.216779">
        <ele>86.904374</ele>
        <time>2019-08-14T14:14:38.067Z</time>
      </trkpt>
      <trkpt lat="51.102571" lon="6.217366">
        <ele>86.761666</ele>
        <time>2019-08-14T14:14:42.551Z</time>
      </trkpt>
      <trkpt lat="51.102323" lon="6.218427">
        <ele>86.447286</ele>
        <time>2019-08-14T14:14:50.319Z</time>
      </trkpt>
      <trkpt lat="51.102222" lon="6.218872">
        <ele>86.315889</ele>
        <time>2019-08-14T14:14:53.648Z</time>
      </trkpt>
      <trkpt lat="51.101998" lon="6.219604">
        <ele>86.107093</ele>
        <time>2019-08-14T14:14:59.498Z</time>
      </trkpt>
      <trkpt lat="51.101805" lon="6.220176">
        <ele>86.035842</ele>
        <time>2019-08-14T14:15:04.063Z</time>
      </trkpt>
      <trkpt lat="51.101360" lon="6.221333">
        <ele>85.886965</ele>
        <time>2019-08-14T14:15:13.878Z</time>
      </trkpt>
      <trkpt lat="51.101132" lon="6.221944">
        <ele>85.808976</ele>
        <time>2019-08-14T14:15:19.342Z</time>
      </trkpt>
      <trkpt lat="51.100732" lon="6.223014">
        <ele>86.120678</ele>
        <time>2019-08-14T14:15:29.607Z</time>
      </trkpt>
      <trkpt lat="51.099431" lon="6.222100">
        <ele>86.844265</ele>
        <time>2019-08-14T14:15:44.056Z</time>
      </trkpt>
      <trkpt lat="51.099182" lon="6.221949">
        <ele>87.045529</ele>
        <time>2019-08-14T14:15:47.017Z</time>
      </trkpt>
      <trkpt lat="51.098804" lon="6.221669">
        <ele>87.360438</ele>
        <time>2019-08-14T14:15:51.746Z</time>
      </trkpt>
      <trkpt lat="51.098236" lon="6.221257">
        <ele>87.831903</ele>
        <time>2019-08-14T14:15:58.715Z</time>
      </trkpt>
      <trkpt lat="51.097745" lon="6.220905">
        <ele>87.834713</ele>
        <time>2019-08-14T14:16:04.008Z</time>
      </trkpt>
      <trkpt lat="51.097490" lon="6.220730">
        <ele>87.780413</ele>
        <time>2019-08-14T14:16:06.505Z</time>
      </trkpt>
      <trkpt lat="51.097155" lon="6.220642">
        <ele>87.714019</ele>
        <time>2019-08-14T14:16:09.465Z</time>
      </trkpt>
      <trkpt lat="51.097236" lon="6.221436">
        <ele>87.615233</ele>
        <time>2019-08-14T14:16:13.557Z</time>
      </trkpt>
      <trkpt lat="51.097244" lon="6.221514">
        <ele>87.605527</ele>
        <time>2019-08-14T14:16:13.888Z</time>
      </trkpt>
      <trkpt lat="51.097356" lon="6.222410">
        <ele>87.012460</ele>
        <time>2019-08-14T14:16:18.096Z</time>
      </trkpt>
      <trkpt lat="51.097651" lon="6.224059">
        <ele>85.409487</ele>
        <time>2019-08-14T14:16:25.301Z</time>
      </trkpt>
      <trkpt lat="51.097865" lon="6.225427">
        <ele>84.497272</ele>
        <time>2019-08-14T14:16:31.593Z</time>
      </trkpt>
      <trkpt lat="51.098007" lon="6.226198">
        <ele>84.128594</ele>
        <time>2019-08-14T14:16:35.416Z</time>
      </trkpt>
      <trkpt lat="51.098240" lon="6.227407">
        <ele>83.584425</ele>
        <time>2019-08-14T14:16:41.890Z</time>
      </trkpt>
      <trkpt lat="51.098942" lon="6.230943">
        <ele>84.507749</ele>
        <time>2019-08-14T14:17:04.694Z</time>
      </trkpt>
      <trkpt lat="51.099067" lon="6.231553">
        <ele>84.803559</ele>
        <time>2019-08-14T14:17:09.020Z</time>
      </trkpt>
      <trkpt lat="51.099141" lon="6.231862">
        <ele>84.956017</ele>
        <time>2019-08-14T14:17:11.398Z</time>
      </trkpt>
      <trkpt lat="51.099416" lon="6.232787">
        <ele>85.432894</ele>
        <time>2019-08-14T14:17:18.621Z</time>
      </trkpt>
      <trkpt lat="51.100125" lon="6.234507">
        <ele>86.703502</ele>
        <time>2019-08-14T14:17:33.433Z</time>
      </trkpt>
      <trkpt lat="51.100674" lon="6.235848">
        <ele>87.552374</ele>
        <time>2019-08-14T14:17:44.448Z</time>
      </trkpt>
      <trkpt lat="51.101008" lon="6.236637">
        <ele>87.979123</ele>
        <time>2019-08-14T14:17:50.985Z</time>
      </trkpt>
      <trkpt lat="51.101311" lon="6.237559">
        <ele>88.445825</ele>
        <time>2019-08-14T14:17:57.864Z</time>
      </trkpt>
      <trkpt lat="51.101424" lon="6.238161">
        <ele>88.261597</ele>
        <time>2019-08-14T14:18:01.500Z</time>
      </trkpt>
      <trkpt lat="51.101449" lon="6.238347">
        <ele>88.194755</ele>
        <time>2019-08-14T14:18:02.633Z</time>
      </trkpt>
      <trkpt lat="51.101488" lon="6.238931">
        <ele>87.988376</ele>
        <time>2019-08-14T14:18:05.619Z</time>
      </trkpt>
      <trkpt lat="51.101483" lon="6.239433">
        <ele>87.811947</ele>
        <time>2019-08-14T14:18:08.003Z</time>
      </trkpt>
      <trkpt lat="51.101646" lon="6.240526">
        <ele>87.364305</ele>
        <time>2019-08-14T14:18:13.100Z</time>
      </trkpt>
      <trkpt lat="51.101665" lon="6.240638">
        <ele>87.272939</ele>
        <time>2019-08-14T14:18:13.624Z</time>
      </trkpt>
      <trkpt lat="51.101853" lon="6.241727">
        <ele>86.383496</ele>
        <time>2019-08-14T14:18:18.493Z</time>
      </trkpt>
      <trkpt lat="51.101944" lon="6.242283">
        <ele>85.931000</ele>
        <time>2019-08-14T14:18:20.970Z</time>
      </trkpt>
      <trkpt lat="51.101976" lon="6.242866">
        <ele>85.470120</ele>
        <time>2019-08-14T14:18:23.597Z</time>
      </trkpt>
      <trkpt lat="51.101966" lon="6.243092">
        <ele>85.291698</ele>
        <time>2019-08-14T14:18:24.617Z</time>
      </trkpt>
      <trkpt lat="51.101621" lon="6.245828">
        <ele>84.639038</ele>
        <time>2019-08-14T14:18:39.239Z</time>
      </trkpt>
      <trkpt lat="51.101610" lon="6.246250">
        <ele>84.567123</ele>
        <time>2019-08-14T14:18:41.641Z</time>
      </trkpt>
      <trkpt lat="51.101667" lon="6.246867">
        <ele>84.480688</ele>
        <time>2019-08-14T14:18:45.030Z</time>
      </trkpt>
      <trkpt lat="51.101836" lon="6.247519">
        <ele>84.382927</ele>
        <time>2019-08-14T14:18:48.804Z</time>
      </trkpt>
      <trkpt lat="51.101917" lon="6.247831">
        <ele>84.336134</ele>
        <time>2019-08-14T14:18:50.603Z</time>
      </trkpt>
      <trkpt lat="51.102065" lon="6.248347">
        <ele>84.257511</ele>
        <time>2019-08-14T14:18:53.584Z</time>
      </trkpt>
      <trkpt lat="51.102187" lon="6.248767">
        <ele>84.194944</ele>
        <time>2019-08-14T14:18:55.970Z</time>
      </trkpt>
      <trkpt lat="51.102536" lon="6.250081">
        <ele>84.029410</ele>
        <time>2019-08-14T14:19:03.440Z</time>
      </trkpt>
      <trkpt lat="51.102548" lon="6.250204">
        <ele>84.014968</ele>
        <time>2019-08-14T14:19:04.070Z</time>
      </trkpt>
      <trkpt lat="51.102554" lon="6.250355">
        <ele>83.997413</ele>
        <time>2019-08-14T14:19:04.862Z</time>
      </trkpt>
      <trkpt lat="51.102524" lon="6.250620">
        <ele>83.966170</ele>
        <time>2019-08-14T14:19:06.302Z</time>
      </trkpt>
      <trkpt lat="51.102516" lon="6.250656">
        <ele>83.961740</ele>
        <time>2019-08-14T14:19:06.512Z</time>
      </trkpt>
      <trkpt lat="51.102440" lon="6.250907">
        <ele>83.929408</ele>
        <time>2019-08-14T14:19:07.962Z</time>
      </trkpt>
      <trkpt lat="51.101140" lon="6.253142">
        <ele>84.056002</ele>
        <time>2019-08-14T14:19:25.438Z</time>
      </trkpt>
      <trkpt lat="51.100550" lon="6.253939">
        <ele>84.257246</ele>
        <time>2019-08-14T14:19:32.962Z</time>
      </trkpt>
      <trkpt lat="51.100063" lon="6.254602">
        <ele>84.456815</ele>
        <time>2019-08-14T14:19:39.281Z</time>
      </trkpt>
      <trkpt lat="51.099719" lon="6.255082">
        <ele>84.599280</ele>
        <time>2019-08-14T14:19:43.800Z</time>
      </trkpt>
      <trkpt lat="51.099506" lon="6.255283">
        <ele>84.628485</ele>
        <time>2019-08-14T14:19:46.231Z</time>
      </trkpt>
      <trkpt lat="51.099339" lon="6.255474">
        <ele>84.608478</ele>
        <time>2019-08-14T14:19:47.998Z</time>
      </trkpt>
      <trkpt lat="51.099128" lon="6.255859">
        <ele>84.577252</ele>
        <time>2019-08-14T14:19:50.722Z</time>
      </trkpt>
      <trkpt lat="51.099020" lon="6.256079">
        <ele>84.560188</ele>
        <time>2019-08-14T14:19:52.300Z</time>
      </trkpt>
      <trkpt lat="51.099237" lon="6.256621">
        <ele>84.520909</ele>
        <time>2019-08-14T14:19:55.812Z</time>
      </trkpt>
      <trkpt lat="51.099282" lon="6.256745">
        <ele>84.512158</ele>
        <time>2019-08-14T14:19:56.513Z</time>
      </trkpt>
      <trkpt lat="51.099417" lon="6.257120">
        <ele>84.485744</ele>
        <time>2019-08-14T14:19:59.000Z</time>
      </trkpt>
      <trkpt lat="51.099428" lon="6.257151">
        <ele>84.483568</ele>
        <time>2019-08-14T14:19:59.132Z</time>
      </trkpt>
      <trkpt lat="51.099640" lon="6.257730">
        <ele>84.332126</ele>
        <time>2019-08-14T14:20:02.670Z</time>
      </trkpt>
      <trkpt lat="51.099695" lon="6.257864">
        <ele>84.273780</ele>
        <time>2019-08-14T14:20:03.427Z</time>
      </trkpt>
      <trkpt lat="51.099715" lon="6.257913">
        <ele>84.252480</ele>
        <time>2019-08-14T14:20:03.762Z</time>
      </trkpt>
      <trkpt lat="51.099801" lon="6.258114">
        <ele>84.163833</ele>
        <time>2019-08-14T14:20:05.049Z</time>
      </trkpt>
      <trkpt lat="51.099839" lon="6.258202">
        <ele>84.124908</ele>
        <time>2019-08-14T14:20:05.552Z</time>
      </trkpt>
      <trkpt lat="51.099902" lon="6.258369">
        <ele>84.053902</ele>
        <time>2019-08-14T14:20:06.481Z</time>
      </trkpt>
      <trkpt lat="51.100165" lon="6.259081">
        <ele>83.752834</ele>
        <time>2019-08-14T14:20:10.572Z</time>
      </trkpt>
      <trkpt lat="51.100229" lon="6.259339">
        <ele>83.651730</ele>
        <time>2019-08-14T14:20:11.783Z</time>
      </trkpt>
      <trkpt lat="51.100266" lon="6.259563">
        <ele>83.567312</ele>
        <time>2019-08-14T14:20:13.019Z</time>
      </trkpt>
      <trkpt lat="51.100306" lon="6.259807">
        <ele>83.475401</ele>
        <time>2019-08-14T14:20:14.185Z</time>
      </trkpt>
      <trkpt lat="51.100479" lon="6.260979">
        <ele>83.007651</ele>
        <time>2019-08-14T14:20:20.184Z</time>
      </trkpt>
      <trkpt lat="51.100622" lon="6.261739">
        <ele>82.696707</ele>
        <time>2019-08-14T14:20:24.066Z</time>
      </trkpt>
      <trkpt lat="51.100873" lon="6.263115">
        <ele>82.190197</ele>
        <time>2019-08-14T14:20:31.018Z</time>
      </trkpt>
      <trkpt lat="51.101068" lon="6.264145">
        <ele>81.910810</ele>
        <time>2019-08-14T14:20:36.486Z</time>
      </trkpt>
      <trkpt lat="51.101112" lon="6.264382">
        <ele>81.846627</ele>
        <time>2019-08-14T14:20:37.757Z</time>
      </trkpt>
      <trkpt lat="51.101413" lon="6.266007">
        <ele>81.539906</ele>
        <time>2019-08-14T14:20:46.456Z</time>
      </trkpt>
      <trkpt lat="51.101751" lon="6.267813">
        <ele>81.491639</ele>
        <time>2019-08-14T14:20:56.873Z</time>
      </trkpt>
      <trkpt lat="51.101758" lon="6.267847">
        <ele>81.490722</ele>
        <time>2019-08-14T14:20:57.082Z</time>
      </trkpt>
      <trkpt lat="51.101805" lon="6.268094">
        <ele>81.484112</ele>
        <time>2019-08-14T14:20:58.699Z</time>
      </trkpt>
      <trkpt lat="51.101881" lon="6.268624">
        <ele>81.664538</ele>
        <time>2019-08-14T14:21:02.086Z</time>
      </trkpt>
      <trkpt lat="51.101912" lon="6.268983">
        <ele>81.820195</ele>
        <time>2019-08-14T14:21:04.370Z</time>
      </trkpt>
      <trkpt lat="51.101946" lon="6.269375">
        <ele>81.990174</ele>
        <time>2019-08-14T14:21:07.080Z</time>
      </trkpt>
      <trkpt lat="51.101953" lon="6.269498">
        <ele>82.043224</ele>
        <time>2019-08-14T14:21:07.871Z</time>
      </trkpt>
      <trkpt lat="51.101968" lon="6.269765">
        <ele>82.158370</ele>
        <time>2019-08-14T14:21:09.793Z</time>
      </trkpt>
      <trkpt lat="51.101987" lon="6.270114">
        <ele>82.308842</ele>
        <time>2019-08-14T14:21:12.081Z</time>
      </trkpt>
      <trkpt lat="51.101989" lon="6.270148">
        <ele>82.323511</ele>
        <time>2019-08-14T14:21:12.307Z</time>
      </trkpt>
      <trkpt lat="51.102010" lon="6.270450">
        <ele>82.454025</ele>
        <time>2019-08-14T14:21:14.490Z</time>
      </trkpt>
      <trkpt lat="51.102027" lon="6.271091">
        <ele>82.730415</ele>
        <time>2019-08-14T14:21:18.811Z</time>
      </trkpt>
      <trkpt lat="51.102030" lon="6.271293">
        <ele>82.821079</ele>
        <time>2019-08-14T14:21:20.120Z</time>
      </trkpt>
      <trkpt lat="51.102030" lon="6.271338">
        <ele>82.841271</ele>
        <time>2019-08-14T14:21:20.434Z</time>
      </trkpt>
      <trkpt lat="51.102030" lon="6.271433">
        <ele>82.883898</ele>
        <time>2019-08-14T14:21:21.131Z</time>
      </trkpt>
      <trkpt lat="51.102031" lon="6.271615">
        <ele>82.965566</ele>
        <time>2019-08-14T14:21:22.450Z</time>
      </trkpt>
      <trkpt lat="51.102024" lon="6.271888">
        <ele>83.088165</ele>
        <time>2019-08-14T14:21:24.303Z</time>
      </trkpt>
      <trkpt lat="51.102012" lon="6.272050">
        <ele>83.161360</ele>
        <time>2019-08-14T14:21:25.529Z</time>
      </trkpt>
      <trkpt lat="51.101968" lon="6.272653">
        <ele>83.433751</ele>
        <time>2019-08-14T14:21:29.723Z</time>
      </trkpt>
      <trkpt lat="51.101916" lon="6.273412">
        <ele>83.776342</ele>
        <time>2019-08-14T14:21:34.682Z</time>
      </trkpt>
      <trkpt lat="51.101898" lon="6.273758">
        <ele>83.932127</ele>
        <time>2019-08-14T14:21:36.883Z</time>
      </trkpt>
      <trkpt lat="51.101887" lon="6.273977">
        <ele>83.999013</ele>
        <time>2019-08-14T14:21:38.296Z</time>
      </trkpt>
      <trkpt lat="51.101861" lon="6.274497">
        <ele>84.014557</ele>
        <time>2019-08-14T14:21:41.494Z</time>
      </trkpt>
      <trkpt lat="51.101837" lon="6.274724">
        <ele>84.021416</ele>
        <time>2019-08-14T14:21:42.864Z</time>
      </trkpt>
      <trkpt lat="51.101828" lon="6.274784">
        <ele>84.023254</ele>
        <time>2019-08-14T14:21:43.216Z</time>
      </trkpt>
      <trkpt lat="51.101731" lon="6.275452">
        <ele>84.043685</ele>
        <time>2019-08-14T14:21:47.273Z</time>
      </trkpt>
      <trkpt lat="51.101736" lon="6.275616">
        <ele>84.048578</ele>
        <time>2019-08-14T14:21:48.326Z</time>
      </trkpt>
      <trkpt lat="51.101743" lon="6.276500">
        <ele>84.074922</ele>
        <time>2019-08-14T14:21:53.117Z</time>
      </trkpt>
      <trkpt lat="51.101749" lon="6.276820">
        <ele>84.052102</ele>
        <time>2019-08-14T14:21:54.712Z</time>
      </trkpt>
      <trkpt lat="51.101755" lon="6.277068">
        <ele>83.957664</ele>
        <time>2019-08-14T14:21:55.878Z</time>
      </trkpt>
      <trkpt lat="51.101737" lon="6.277126">
        <ele>83.933046</ele>
        <time>2019-08-14T14:21:56.163Z</time>
      </trkpt>
      <trkpt lat="51.101761" lon="6.277929">
        <ele>83.627146</ele>
        <time>2019-08-14T14:21:59.980Z</time>
      </trkpt>
      <trkpt lat="51.101784" lon="6.278007">
        <ele>83.594356</ele>
        <time>2019-08-14T14:22:00.383Z</time>
      </trkpt>
      <trkpt lat="51.101787" lon="6.278047">
        <ele>83.579027</ele>
        <time>2019-08-14T14:22:00.573Z</time>
      </trkpt>
      <trkpt lat="51.101798" lon="6.278240">
        <ele>83.505286</ele>
        <time>2019-08-14T14:22:01.493Z</time>
      </trkpt>
      <trkpt lat="51.101851" lon="6.278663">
        <ele>83.341155</ele>
        <time>2019-08-14T14:22:03.650Z</time>
      </trkpt>
      <trkpt lat="51.101886" lon="6.278884">
        <ele>83.254428</ele>
        <time>2019-08-14T14:22:04.760Z</time>
      </trkpt>
      <trkpt lat="51.101915" lon="6.279108">
        <ele>83.167400</ele>
        <time>2019-08-14T14:22:05.964Z</time>
      </trkpt>
      <trkpt lat="51.101962" lon="6.279455">
        <ele>83.032325</ele>
        <time>2019-08-14T14:22:07.679Z</time>
      </trkpt>
      <trkpt lat="51.102044" lon="6.279952">
        <ele>83.003316</ele>
        <time>2019-08-14T14:22:10.258Z</time>
      </trkpt>
      <trkpt lat="51.102049" lon="6.279986">
        <ele>83.004268</ele>
        <time>2019-08-14T14:22:10.433Z</time>
      </trkpt>
      <trkpt lat="51.102058" lon="6.280025">
        <ele>83.005402</ele>
        <time>2019-08-14T14:22:10.651Z</time>
      </trkpt>
      <trkpt lat="51.102049" lon="6.280103">
        <ele>83.007565</ele>
        <time>2019-08-14T14:22:11.078Z</time>
      </trkpt>
      <trkpt lat="51.102091" lon="6.280301">
        <ele>83.013265</ele>
        <time>2019-08-14T14:22:12.184Z</time>
      </trkpt>
      <trkpt lat="51.102109" lon="6.280383">
        <ele>83.015635</ele>
        <time>2019-08-14T14:22:12.621Z</time>
      </trkpt>
      <trkpt lat="51.102118" lon="6.280424">
        <ele>83.016819</ele>
        <time>2019-08-14T14:22:12.844Z</time>
      </trkpt>
      <trkpt lat="51.102181" lon="6.280692">
        <ele>83.024625</ele>
        <time>2019-08-14T14:22:14.368Z</time>
      </trkpt>
      <trkpt lat="51.102190" lon="6.280714">
        <ele>83.025341</ele>
        <time>2019-08-14T14:22:14.562Z</time>
      </trkpt>
      <trkpt lat="51.102255" lon="6.280884">
        <ele>83.030770</ele>
        <time>2019-08-14T14:22:15.673Z</time>
      </trkpt>
      <trkpt lat="51.102305" lon="6.281015">
        <ele>83.034951</ele>
        <time>2019-08-14T14:22:16.522Z</time>
      </trkpt>
      <trkpt lat="51.102344" lon="6.281040">
        <ele>83.036777</ele>
        <time>2019-08-14T14:22:16.904Z</time>
      </trkpt>
      <trkpt lat="51.102353" lon="6.281063">
        <ele>83.037516</ele>
        <time>2019-08-14T14:22:17.068Z</time>
      </trkpt>
      <trkpt lat="51.102408" lon="6.281191">
        <ele>83.041747</ele>
        <time>2019-08-14T14:22:18.050Z</time>
      </trkpt>
      <trkpt lat="51.102443" lon="6.281274">
        <ele>83.044474</ele>
        <time>2019-08-14T14:22:18.647Z</time>
      </trkpt>
      <trkpt lat="51.102545" lon="6.281513">
        <ele>83.052356</ele>
        <time>2019-08-14T14:22:20.359Z</time>
      </trkpt>
      <trkpt lat="51.102552" lon="6.281530">
        <ele>83.052910</ele>
        <time>2019-08-14T14:22:20.489Z</time>
      </trkpt>
      <trkpt lat="51.102748" lon="6.281985">
        <ele>83.067960</ele>
        <time>2019-08-14T14:22:24.039Z</time>
      </trkpt>
      <trkpt lat="51.102915" lon="6.282312">
        <ele>83.171774</ele>
        <time>2019-08-14T14:22:26.818Z</time>
      </trkpt>
      <trkpt lat="51.102960" lon="6.282418">
        <ele>83.210471</ele>
        <time>2019-08-14T14:22:27.619Z</time>
      </trkpt>
      <trkpt lat="51.103054" lon="6.282610">
        <ele>83.284103</ele>
        <time>2019-08-14T14:22:29.247Z</time>
      </trkpt>
      <trkpt lat="51.103143" lon="6.282815">
        <ele>83.359478</ele>
        <time>2019-08-14T14:22:30.853Z</time>
      </trkpt>
      <trkpt lat="51.103241" lon="6.283051">
        <ele>83.445048</ele>
        <time>2019-08-14T14:22:32.631Z</time>
      </trkpt>
      <trkpt lat="51.103346" lon="6.283285">
        <ele>83.532030</ele>
        <time>2019-08-14T14:22:34.420Z</time>
      </trkpt>
      <trkpt lat="51.103428" lon="6.283468">
        <ele>83.600022</ele>
        <time>2019-08-14T14:22:35.774Z</time>
      </trkpt>
      <trkpt lat="51.103509" lon="6.283648">
        <ele>83.666996</ele>
        <time>2019-08-14T14:22:37.179Z</time>
      </trkpt>
      <trkpt lat="51.103520" lon="6.283672">
        <ele>83.675982</ele>
        <time>2019-08-14T14:22:37.368Z</time>
      </trkpt>
      <trkpt lat="51.103556" lon="6.283752">
        <ele>83.705748</ele>
        <time>2019-08-14T14:22:37.995Z</time>
      </trkpt>
      <trkpt lat="51.103635" lon="6.283928">
        <ele>83.771177</ele>
        <time>2019-08-14T14:22:39.371Z</time>
      </trkpt>
      <trkpt lat="51.103649" lon="6.283962">
        <ele>83.783474</ele>
        <time>2019-08-14T14:22:39.661Z</time>
      </trkpt>
      <trkpt lat="51.103887" lon="6.284587">
        <ele>83.947159</ele>
        <time>2019-08-14T14:22:44.346Z</time>
      </trkpt>
      <trkpt lat="51.103770" lon="6.284813">
        <ele>83.960915</ele>
        <time>2019-08-14T14:22:46.763Z</time>
      </trkpt>
      <trkpt lat="51.103420" lon="6.285649">
        <ele>84.008103</ele>
        <time>2019-08-14T14:22:54.616Z</time>
      </trkpt>
      <trkpt lat="51.103313" lon="6.285854">
        <ele>84.020622</ele>
        <time>2019-08-14T14:22:56.560Z</time>
      </trkpt>
      <trkpt lat="51.103298" lon="6.285881">
        <ele>84.022315</ele>
        <time>2019-08-14T14:22:56.832Z</time>
      </trkpt>
      <trkpt lat="51.103078" lon="6.286263">
        <ele>84.046659</ele>
        <time>2019-08-14T14:23:00.664Z</time>
      </trkpt>
      <trkpt lat="51.102938" lon="6.286491">
        <ele>84.061636</ele>
        <time>2019-08-14T14:23:03.090Z</time>
      </trkpt>
      <trkpt lat="51.102688" lon="6.286896">
        <ele>84.025726</ele>
        <time>2019-08-14T14:23:07.285Z</time>
      </trkpt>
      <trkpt lat="51.102611" lon="6.287046">
        <ele>84.001662</ele>
        <time>2019-08-14T14:23:08.662Z</time>
      </trkpt>
      <trkpt lat="51.102310" lon="6.287630">
        <ele>83.907821</ele>
        <time>2019-08-14T14:23:14.258Z</time>
      </trkpt>
      <trkpt lat="51.101460" lon="6.289239">
        <ele>83.757390</ele>
        <time>2019-08-14T14:23:29.624Z</time>
      </trkpt>
      <trkpt lat="51.101443" lon="6.289252">
        <ele>83.759672</ele>
        <time>2019-08-14T14:23:29.854Z</time>
      </trkpt>
      <trkpt lat="51.100863" lon="6.290387">
        <ele>83.870843</ele>
        <time>2019-08-14T14:23:41.422Z</time>
      </trkpt>
      <trkpt lat="51.098785" lon="6.293221">
        <ele>84.622850</ele>
        <time>2019-08-14T14:24:16.315Z</time>
      </trkpt>
      <trkpt lat="51.095794" lon="6.297266">
        <ele>86.945875</ele>
        <time>2019-08-14T14:25:09.516Z</time>
      </trkpt>
      <trkpt lat="51.095804" lon="6.297344">
        <ele>86.984502</ele>
        <time>2019-08-14T14:25:10.357Z</time>
      </trkpt>
      <trkpt lat="51.095882" lon="6.298491">
        <ele>87.544291</ele>
        <time>2019-08-14T14:25:20.828Z</time>
      </trkpt>
      <trkpt lat="51.095983" lon="6.298890">
        <ele>87.753024</ele>
        <time>2019-08-14T14:25:24.635Z</time>
      </trkpt>
      <trkpt lat="51.095894" lon="6.298880">
        <ele>87.768382</ele>
        <time>2019-08-14T14:25:25.981Z</time>
      </trkpt>
      <trkpt lat="51.095798" lon="6.298922">
        <ele>87.783216</ele>
        <time>2019-08-14T14:25:27.343Z</time>
      </trkpt>
      <trkpt lat="51.095743" lon="6.298948">
        <ele>87.791765</ele>
        <time>2019-08-14T14:25:28.113Z</time>
      </trkpt>
      <trkpt lat="51.095508" lon="6.299060">
        <ele>87.828315</ele>
        <time>2019-08-14T14:25:31.528Z</time>
      </trkpt>
      <trkpt lat="51.095193" lon="6.299211">
        <ele>87.877331</ele>
        <time>2019-08-14T14:25:35.689Z</time>
      </trkpt>
      <trkpt lat="51.095157" lon="6.299228">
        <ele>87.882926</ele>
        <time>2019-08-14T14:25:36.174Z</time>
      </trkpt>
      <trkpt lat="51.094936" lon="6.299393">
        <ele>87.919295</ele>
        <time>2019-08-14T14:25:39.163Z</time>
      </trkpt>
      <trkpt lat="51.094919" lon="6.299406">
        <ele>87.922105</ele>
        <time>2019-08-14T14:25:39.383Z</time>
      </trkpt>
      <trkpt lat="51.094563" lon="6.299746">
        <ele>87.983959</ele>
        <time>2019-08-14T14:25:44.226Z</time>
      </trkpt>
      <trkpt lat="51.094528" lon="6.299779">
        <ele>87.990020</ele>
        <time>2019-08-14T14:25:44.683Z</time>
      </trkpt>
      <trkpt lat="51.094385" lon="6.299915">
        <ele>88.014839</ele>
        <time>2019-08-14T14:25:46.519Z</time>
      </trkpt>
      <trkpt lat="51.094204" lon="6.300060">
        <ele>87.990353</ele>
        <time>2019-08-14T14:25:48.803Z</time>
      </trkpt>
      <trkpt lat="51.093905" lon="6.300298">
        <ele>87.913192</ele>
        <time>2019-08-14T14:25:52.611Z</time>
      </trkpt>
      <trkpt lat="51.093381" lon="6.300664">
        <ele>87.781114</ele>
        <time>2019-08-14T14:25:59.311Z</time>
      </trkpt>
      <trkpt lat="51.093325" lon="6.300702">
        <ele>87.767062</ele>
        <time>2019-08-14T14:26:00.034Z</time>
      </trkpt>
      <trkpt lat="51.093296" lon="6.300721">
        <ele>87.759824</ele>
        <time>2019-08-14T14:26:00.393Z</time>
      </trkpt>
      <trkpt lat="51.093053" lon="6.300884">
        <ele>87.698959</ele>
        <time>2019-08-14T14:26:03.454Z</time>
      </trkpt>
      <trkpt lat="51.092904" lon="6.300984">
        <ele>87.661635</ele>
        <time>2019-08-14T14:26:05.327Z</time>
      </trkpt>
      <trkpt lat="51.092656" lon="6.301150">
        <ele>87.614142</ele>
        <time>2019-08-14T14:26:08.490Z</time>
      </trkpt>
      <trkpt lat="51.092474" lon="6.301225">
        <ele>87.642201</ele>
        <time>2019-08-14T14:26:10.743Z</time>
      </trkpt>
      <trkpt lat="51.092434" lon="6.301246">
        <ele>87.648487</ele>
        <time>2019-08-14T14:26:11.231Z</time>
      </trkpt>
      <trkpt lat="51.092324" lon="6.301301">
        <ele>87.665694</ele>
        <time>2019-08-14T14:26:12.609Z</time>
      </trkpt>
      <trkpt lat="51.092118" lon="6.301400">
        <ele>87.697809</ele>
        <time>2019-08-14T14:26:15.282Z</time>
      </trkpt>
      <trkpt lat="51.091965" lon="6.301483">
        <ele>87.721933</ele>
        <time>2019-08-14T14:26:17.292Z</time>
      </trkpt>
      <trkpt lat="51.091822" lon="6.301628">
        <ele>87.747236</ele>
        <time>2019-08-14T14:26:19.508Z</time>
      </trkpt>
      <trkpt lat="51.090975" lon="6.302489">
        <ele>87.975089</ele>
        <time>2019-08-14T14:26:32.456Z</time>
      </trkpt>
      <trkpt lat="51.090854" lon="6.302611">
        <ele>88.078196</ele>
        <time>2019-08-14T14:26:34.332Z</time>
      </trkpt>
      <trkpt lat="51.090702" lon="6.302766">
        <ele>88.208141</ele>
        <time>2019-08-14T14:26:36.533Z</time>
      </trkpt>
      <trkpt lat="51.090539" lon="6.302917">
        <ele>88.343904</ele>
        <time>2019-08-14T14:26:38.941Z</time>
      </trkpt>
      <trkpt lat="51.090169" lon="6.303252">
        <ele>88.650328</ele>
        <time>2019-08-14T14:26:44.706Z</time>
      </trkpt>
      <trkpt lat="51.090024" lon="6.303384">
        <ele>88.770573</ele>
        <time>2019-08-14T14:26:47.129Z</time>
      </trkpt>
      <trkpt lat="51.089738" lon="6.303653">
        <ele>89.009711</ele>
        <time>2019-08-14T14:26:52.096Z</time>
      </trkpt>
      <trkpt lat="51.089550" lon="6.303830">
        <ele>89.166947</ele>
        <time>2019-08-14T14:26:55.495Z</time>
      </trkpt>
      <trkpt lat="51.089202" lon="6.304271">
        <ele>89.747945</ele>
        <time>2019-08-14T14:27:02.101Z</time>
      </trkpt>
      <trkpt lat="51.089096" lon="6.304389">
        <ele>89.918042</ele>
        <time>2019-08-14T14:27:04.090Z</time>
      </trkpt>
      <trkpt lat="51.088885" lon="6.304627">
        <ele>90.258113</ele>
        <time>2019-08-14T14:27:07.883Z</time>
      </trkpt>
      <trkpt lat="51.088774" lon="6.304728">
        <ele>90.426248</ele>
        <time>2019-08-14T14:27:09.962Z</time>
      </trkpt>
      <trkpt lat="51.088792" lon="6.304769">
        <ele>90.467568</ele>
        <time>2019-08-14T14:27:10.345Z</time>
      </trkpt>
      <trkpt lat="51.088936" lon="6.304948">
        <ele>90.707828</ele>
        <time>2019-08-14T14:27:12.618Z</time>
      </trkpt>
      <trkpt lat="51.088975" lon="6.305119">
        <ele>90.858103</ele>
        <time>2019-08-14T14:27:14.244Z</time>
      </trkpt>
      <trkpt lat="51.089240" lon="6.306026">
        <ele>91.632405</ele>
        <time>2019-08-14T14:27:21.920Z</time>
      </trkpt>
      <trkpt lat="51.089274" lon="6.306209">
        <ele>91.734402</ele>
        <time>2019-08-14T14:27:23.466Z</time>
      </trkpt>
      <trkpt lat="51.089301" lon="6.306396">
        <ele>91.836953</ele>
        <time>2019-08-14T14:27:24.740Z</time>
      </trkpt>
      <trkpt lat="51.088943" lon="6.306591">
        <ele>92.158915</ele>
        <time>2019-08-14T14:27:28.865Z</time>
      </trkpt>
      <trkpt lat="51.088785" lon="6.306665">
        <ele>92.299056</ele>
        <time>2019-08-14T14:27:30.669Z</time>
      </trkpt>
      <trkpt lat="51.088295" lon="6.306910">
        <ele>92.736082</ele>
        <time>2019-08-14T14:27:35.786Z</time>
      </trkpt>
      <trkpt lat="51.087796" lon="6.307154">
        <ele>93.100657</ele>
        <time>2019-08-14T14:27:41.526Z</time>
      </trkpt>
      <trkpt lat="51.087276" lon="6.307413">
        <ele>93.236741</ele>
        <time>2019-08-14T14:27:47.286Z</time>
      </trkpt>
      <trkpt lat="51.086956" lon="6.307610">
        <ele>93.322431</ele>
        <time>2019-08-14T14:27:50.504Z</time>
      </trkpt>
      <trkpt lat="51.086675" lon="6.307800">
        <ele>93.398682</ele>
        <time>2019-08-14T14:27:53.151Z</time>
      </trkpt>
      <trkpt lat="51.086276" lon="6.308198">
        <ele>93.516282</ele>
        <time>2019-08-14T14:27:57.137Z</time>
      </trkpt>
      <trkpt lat="51.086085" lon="6.308489">
        <ele>93.563592</ele>
        <time>2019-08-14T14:27:59.346Z</time>
      </trkpt>
      <trkpt lat="51.085767" lon="6.309019">
        <ele>93.645714</ele>
        <time>2019-08-14T14:28:03.681Z</time>
      </trkpt>
      <trkpt lat="51.085668" lon="6.309190">
        <ele>93.671771</ele>
        <time>2019-08-14T14:28:05.019Z</time>
      </trkpt>
      <trkpt lat="51.085567" lon="6.309380">
        <ele>93.699660</ele>
        <time>2019-08-14T14:28:06.449Z</time>
      </trkpt>
      <trkpt lat="51.085326" lon="6.309843">
        <ele>93.767035</ele>
        <time>2019-08-14T14:28:10.057Z</time>
      </trkpt>
      <trkpt lat="51.085264" lon="6.309970">
        <ele>93.785057</ele>
        <time>2019-08-14T14:28:11.038Z</time>
      </trkpt>
      <trkpt lat="51.085162" lon="6.310173">
        <ele>93.814185</ele>
        <time>2019-08-14T14:28:12.499Z</time>
      </trkpt>
      <trkpt lat="51.085128" lon="6.310240">
        <ele>93.823835</ele>
        <time>2019-08-14T14:28:12.965Z</time>
      </trkpt>
      <trkpt lat="51.084943" lon="6.310588">
        <ele>93.996953</ele>
        <time>2019-08-14T14:28:15.778Z</time>
      </trkpt>
      <trkpt lat="51.084455" lon="6.311414">
        <ele>94.540019</ele>
        <time>2019-08-14T14:28:23.482Z</time>
      </trkpt>
      <trkpt lat="51.084104" lon="6.311887">
        <ele>94.890634</ele>
        <time>2019-08-14T14:28:28.977Z</time>
      </trkpt>
      <trkpt lat="51.083937" lon="6.312115">
        <ele>95.058369</ele>
        <time>2019-08-14T14:28:31.626Z</time>
      </trkpt>
      <trkpt lat="51.083840" lon="6.312246">
        <ele>95.155351</ele>
        <time>2019-08-14T14:28:33.064Z</time>
      </trkpt>
      <trkpt lat="51.083483" lon="6.312794">
        <ele>95.208954</ele>
        <time>2019-08-14T14:28:37.895Z</time>
      </trkpt>
      <trkpt lat="51.083395" lon="6.312942">
        <ele>95.208954</ele>
        <time>2019-08-14T14:28:39.189Z</time>
      </trkpt>
      <trkpt lat="51.083490" lon="6.313084">
        <ele>95.208954</ele>
        <time>2019-08-14T14:28:40.370Z</time>
      </trkpt>
      <trkpt lat="51.083871" lon="6.313663">
        <ele>95.208954</ele>
        <time>2019-08-14T14:28:45.085Z</time>
      </trkpt>
      <trkpt lat="51.083826" lon="6.313734">
        <ele>95.208954</ele>
        <time>2019-08-14T14:28:49.424Z</time>
      </trkpt>
      <trkpt lat="51.084095" lon="6.314130">
        <ele>95.208954</ele>
        <time>2019-08-14T14:28:57.535Z</time>
      </trkpt>
    </trkseg>
  </trk>
</gpx>